Observation data for Sierra Blanca on 12/08/2019      Previous  Date       Current Mesonet Observations  Soil Data  Daily Summary Page  Observations in Plain Language
KSB1 080600Z 20001KT 12/03 A3017 RMK A01 T01220033  RH  054%=      5-min Rain = 0
KSB1 080601Z 21001KT 12/03 A3017 RMK A01 T01190034  RH  056%=      5-min Rain = 0
KSB1 080602Z 21001KT 12/03 A3017 RMK A01 T01150034  RH  057%=      5-min Rain = 0
KSB1 080603Z 22001KT 12/03 A3017 RMK A01 T01150033  RH  057%=      5-min Rain = 0
KSB1 080604Z 22001KT 12/03 A3017 RMK A01 T01170033  RH  056%=      5-min Rain = 0
KSB1 080605Z 22001KT 12/03 A3017 RMK A01 T01200033  RH  055%=      5-min Rain = 0
KSB1 080606Z 24002KT 12/03 A3017 RMK A01 T01210034  RH  055%=      5-min Rain = 0
KSB1 080607Z 24002KT 12/03 A3017 RMK A01 T01200034  RH  056%=      5-min Rain = 0
KSB1 080608Z 24002KT 12/03 A3017 RMK A01 T01190034  RH  056%=      5-min Rain = 0
KSB1 080609Z 24001KT 12/03 A3017 RMK A01 T01190034  RH  056%=      5-min Rain = 0
KSB1 080610Z 24002KT 12/03 A3017 RMK A01 T01190034  RH  056%=      5-min Rain = 0
KSB1 080611Z 25002KT 12/03 A3017 RMK A01 T01180034  RH  056%=      5-min Rain = 0
KSB1 080612Z 26002KT 12/03 A3017 RMK A01 T01180034  RH  056%=      5-min Rain = 0
KSB1 080613Z 27001KT 12/03 A3017 RMK A01 T01180034  RH  056%=      5-min Rain = 0
KSB1 080614Z 28001KT 12/03 A3017 RMK A01 T01170034  RH  057%=      5-min Rain = 0
KSB1 080615Z 27002KT 12/03 A3017 RMK A01 T01150034  RH  057%=      5-min Rain = 0
KSB1 080616Z 26003KT 12/03 A3017 RMK A01 T01150033  RH  057%=      5-min Rain = 0
KSB1 080617Z 25003KT 12/03 A3017 RMK A01 T01190033  RH  056%=      5-min Rain = 0
KSB1 080618Z 26003KT 12/03 A3017 RMK A01 T01230034  RH  054%=      5-min Rain = 0
KSB1 080619Z 26003KT 13/03 A3017 RMK A01 T01260034  RH  053%=      5-min Rain = 0
KSB1 080620Z 27003KT 12/03 A3017 RMK A01 T01240034  RH  054%=      5-min Rain = 0
KSB1 080621Z 26003KT 12/03 A3017 RMK A01 T01160034  RH  057%=      5-min Rain = 0
KSB1 080622Z 25001KT 11/03 A3017 RMK A01 T01120033  RH  058%=      5-min Rain = 0
KSB1 080623Z 21001KT 11/03 A3016 RMK A01 T01120033  RH  058%=      5-min Rain = 0
KSB1 080624Z 23002KT 11/03 A3016 RMK A01 T01120033  RH  058%=      5-min Rain = 0
KSB1 080625Z 21001KT 11/03 A3016 RMK A01 T01140034  RH  058%=      5-min Rain = 0
KSB1 080626Z 20001KT 12/03 A3016 RMK A01 T01150034  RH  058%=      5-min Rain = 0
KSB1 080627Z 21001KT 12/03 A3016 RMK A01 T01150034  RH  057%=      5-min Rain = 0
KSB1 080628Z 20001KT 12/03 A3016 RMK A01 T01150033  RH  057%=      5-min Rain = 0
KSB1 080629Z 20001KT 12/03 A3016 RMK A01 T01150033  RH  057%=      5-min Rain = 0
KSB1 080630Z 20001KT 12/03 A3016 RMK A01 T01150033  RH  057%=      5-min Rain = 0
KSB1 080631Z 18001KT 12/03 A3016 RMK A01 T01150033  RH  057%=      5-min Rain = 0
KSB1 080632Z 19001KT 11/03 A3016 RMK A01 T01140033  RH  058%=      5-min Rain = 0
KSB1 080633Z 23001KT 11/03 A3016 RMK A01 T01130033  RH  058%=      5-min Rain = 0
KSB1 080634Z 25003KT 11/03 A3016 RMK A01 T01120033  RH  058%=      5-min Rain = 0
KSB1 080635Z 25003KT 11/03 A3016 RMK A01 T01120033  RH  058%=      5-min Rain = 0
KSB1 080636Z 25003KT 11/03 A3016 RMK A01 T01120034  RH  058%=      5-min Rain = 0
KSB1 080637Z 25004KT 11/03 A3016 RMK A01 T01110033  RH  059%=      5-min Rain = 0
KSB1 080638Z 24004KT 11/03 A3016 RMK A01 T01110033  RH  059%=      5-min Rain = 0
KSB1 080639Z 24004KT 11/03 A3016 RMK A01 T01110033  RH  059%=      5-min Rain = 0
KSB1 080640Z 24004KT 11/03 A3016 RMK A01 T01110033  RH  059%=      5-min Rain = 0
KSB1 080641Z 24004KT 11/03 A3016 RMK A01 T01120033  RH  058%=      5-min Rain = 0
KSB1 080642Z 24003KT 12/03 A3016 RMK A01 T01150034  RH  057%=      5-min Rain = 0
KSB1 080643Z 23003KT 12/03 A3016 RMK A01 T01190034  RH  056%=      5-min Rain = 0
KSB1 080644Z 23003KT 12/03 A3016 RMK A01 T01210034  RH  055%=      5-min Rain = 0
KSB1 080645Z 23003KT 12/03 A3016 RMK A01 T01240034  RH  054%=      5-min Rain = 0
KSB1 080646Z 23003KT 13/03 A3016 RMK A01 T01260034  RH  053%=      5-min Rain = 0
KSB1 080647Z 23003KT 13/03 A3016 RMK A01 T01290034  RH  053%=      5-min Rain = 0
KSB1 080648Z 23003KT 13/03 A3016 RMK A01 T01290034  RH  052%=      5-min Rain = 0
KSB1 080649Z 23003KT 13/03 A3016 RMK A01 T01300034  RH  052%=      5-min Rain = 0
KSB1 080650Z 23003KT 13/03 A3016 RMK A01 T01300034  RH  052%=      5-min Rain = 0
KSB1 080651Z 24003KT 13/03 A3016 RMK A01 T01300034  RH  052%=      5-min Rain = 0
KSB1 080652Z 25003KT 13/03 A3016 RMK A01 T01300034  RH  052%=      5-min Rain = 0
KSB1 080653Z 25003KT 13/03 A3016 RMK A01 T01310034  RH  052%=      5-min Rain = 0
KSB1 080654Z 25003KT 13/03 A3016 RMK A01 T01310034  RH  052%=      5-min Rain = 0
KSB1 080655Z 25003KT 13/03 A3016 RMK A01 T01310034  RH  052%=      5-min Rain = 0
KSB1 080656Z 25002KT 13/03 A3016 RMK A01 T01310034  RH  052%=      5-min Rain = 0
KSB1 080657Z 26002KT 13/03 A3016 RMK A01 T01310034  RH  052%=      5-min Rain = 0
KSB1 080658Z 26002KT 13/03 A3016 RMK A01 T01320034  RH  051%=      5-min Rain = 0
KSB1 080659Z 25002KT 13/03 A3016 RMK A01 T01330034  RH  051%=      5-min Rain = 0
KSB1 080700Z 25002KT 13/03 A3016 RMK A01 T01330033  RH  051%=      5-min Rain = 0
KSB1 080701Z 25002KT 13/03 A3016 RMK A01 T01340034  RH  051%=      5-min Rain = 0
KSB1 080702Z 24002KT 13/03 A3015 RMK A01 T01340034  RH  051%=      5-min Rain = 0
KSB1 080703Z 24002KT 14/03 A3015 RMK A01 T01350033  RH  050%=      5-min Rain = 0
KSB1 080704Z 23001KT 14/03 A3015 RMK A01 T01360033  RH  050%=      5-min Rain = 0
KSB1 080705Z 21001KT 14/03 A3015 RMK A01 T01360033  RH  050%=      5-min Rain = 0
KSB1 080706Z 22001KT 14/03 A3015 RMK A01 T01370033  RH  049%=      5-min Rain = 0
KSB1 080707Z 21001KT 14/03 A3015 RMK A01 T01370033  RH  049%=      5-min Rain = 0
KSB1 080708Z 21001KT 14/03 A3015 RMK A01 T01370033  RH  049%=      5-min Rain = 0
KSB1 080709Z 22001KT 14/03 A3015 RMK A01 T01370033  RH  049%=      5-min Rain = 0
KSB1 080710Z 21002KT 14/03 A3015 RMK A01 T01370033  RH  049%=      5-min Rain = 0
KSB1 080711Z 22002KT 14/03 A3015 RMK A01 T01380033  RH  049%=      5-min Rain = 0
KSB1 080712Z 22001KT 14/03 A3015 RMK A01 T01380033  RH  049%=      5-min Rain = 0
KSB1 080713Z 22001KT 14/03 A3015 RMK A01 T01380033  RH  049%=      5-min Rain = 0
KSB1 080714Z 23001KT 14/03 A3015 RMK A01 T01390033  RH  049%=      5-min Rain = 0
KSB1 080715Z 23001KT 14/03 A3015 RMK A01 T01380033  RH  049%=      5-min Rain = 0
KSB1 080716Z 24001KT 14/03 A3015 RMK A01 T01380033  RH  049%=      5-min Rain = 0
KSB1 080717Z 23001KT 14/03 A3015 RMK A01 T01370033  RH  049%=      5-min Rain = 0
KSB1 080718Z 22001KT 14/03 A3014 RMK A01 T01370032  RH  049%=      5-min Rain = 0
KSB1 080719Z 23001KT 14/03 A3014 RMK A01 T01370032  RH  049%=      5-min Rain = 0
KSB1 080720Z 23001KT 14/03 A3015 RMK A01 T01370033  RH  049%=      5-min Rain = 0
KSB1 080721Z 23002KT 14/03 A3015 RMK A01 T01370033  RH  049%=      5-min Rain = 0
KSB1 080722Z 25002KT 14/03 A3015 RMK A01 T01370033  RH  049%=      5-min Rain = 0
KSB1 080723Z 25002KT 14/03 A3015 RMK A01 T01370033  RH  050%=      5-min Rain = 0
KSB1 080724Z 26002KT 14/03 A3015 RMK A01 T01360033  RH  050%=      5-min Rain = 0
KSB1 080725Z 26003KT 14/03 A3015 RMK A01 T01350033  RH  050%=      5-min Rain = 0
KSB1 080726Z 26003KT 13/03 A3015 RMK A01 T01330034  RH  051%=      5-min Rain = 0
KSB1 080727Z 25003KT 13/03 A3015 RMK A01 T01320033  RH  051%=      5-min Rain = 0
KSB1 080728Z 26003KT 13/03 A3015 RMK A01 T01320033  RH  051%=      5-min Rain = 0
KSB1 080729Z 25003KT 13/03 A3015 RMK A01 T01330033  RH  051%=      5-min Rain = 0
KSB1 080730Z 25003KT 13/03 A3015 RMK A01 T01330033  RH  050%=      5-min Rain = 0
KSB1 080731Z 24003KT 13/03 A3015 RMK A01 T01340033  RH  050%=      5-min Rain = 0
KSB1 080732Z 24003KT 13/03 A3015 RMK A01 T01340033  RH  050%=      5-min Rain = 0
KSB1 080733Z 25002KT 13/03 A3015 RMK A01 T01340033  RH  050%=      5-min Rain = 0
KSB1 080734Z 26002KT 13/03 A3015 RMK A01 T01340032  RH  050%=      5-min Rain = 0
KSB1 080735Z 27003KT 13/03 A3015 RMK A01 T01340032  RH  050%=      5-min Rain = 0
KSB1 080736Z 25004KT 13/03 A3015 RMK A01 T01340032  RH  050%=      5-min Rain = 0
KSB1 080737Z 25003KT 13/03 A3015 RMK A01 T01330032  RH  050%=      5-min Rain = 0
KSB1 080738Z 25002KT 13/03 A3015 RMK A01 T01330032  RH  050%=      5-min Rain = 0
KSB1 080739Z 25002KT 13/03 A3015 RMK A01 T01330032  RH  050%=      5-min Rain = 0
KSB1 080740Z 24002KT 13/03 A3014 RMK A01 T01320032  RH  051%=      5-min Rain = 0
KSB1 080741Z 24002KT 13/03 A3014 RMK A01 T01320032  RH  051%=      5-min Rain = 0
KSB1 080742Z 23003KT 13/03 A3014 RMK A01 T01310032  RH  051%=      5-min Rain = 0
KSB1 080743Z 23003KT 13/03 A3014 RMK A01 T01300031  RH  051%=      5-min Rain = 0
KSB1 080744Z 24003KT 13/03 A3014 RMK A01 T01270031  RH  052%=      5-min Rain = 0
KSB1 080745Z 24004KT 12/03 A3014 RMK A01 T01240031  RH  053%=      5-min Rain = 0
KSB1 080746Z 25005KT 12/03 A3014 RMK A01 T01220031  RH  054%=      5-min Rain = 0
KSB1 080747Z 25005KT 12/03 A3014 RMK A01 T01200031  RH  054%=      5-min Rain = 0
KSB1 080748Z 25006KT 12/03 A3014 RMK A01 T01190031  RH  055%=      5-min Rain = 0
KSB1 080749Z 25005KT 12/03 A3014 RMK A01 T01180031  RH  055%=      5-min Rain = 0
KSB1 080750Z 25005KT 12/03 A3014 RMK A01 T01190030  RH  055%=      5-min Rain = 0
KSB1 080751Z 26005KT 12/03 A3014 RMK A01 T01200030  RH  054%=      5-min Rain = 0
KSB1 080752Z 25005KT 12/03 A3014 RMK A01 T01210030  RH  054%=      5-min Rain = 0
KSB1 080753Z 25005KT 12/03 A3014 RMK A01 T01230030  RH  053%=      5-min Rain = 0
KSB1 080754Z 25004KT 12/03 A3014 RMK A01 T01240030  RH  053%=      5-min Rain = 0
KSB1 080755Z 25004KT 12/03 A3014 RMK A01 T01230030  RH  053%=      5-min Rain = 0
KSB1 080756Z 25004KT 12/03 A3014 RMK A01 T01230030  RH  053%=      5-min Rain = 0
KSB1 080757Z 25004KT 12/03 A3014 RMK A01 T01220030  RH  053%=      5-min Rain = 0
KSB1 080758Z 26004KT 12/03 A3014 RMK A01 T01210030  RH  054%=      5-min Rain = 0
KSB1 080759Z 26004KT 12/03 A3014 RMK A01 T01210030  RH  054%=      5-min Rain = 0
KSB1 080800Z 26003KT 12/03 A3013 RMK A01 T01200030  RH  054%=      5-min Rain = 0
KSB1 080801Z 27003KT 12/03 A3013 RMK A01 T01200030  RH  054%=      5-min Rain = 0
KSB1 080802Z 27003KT 12/03 A3013 RMK A01 T01180031  RH  055%=      5-min Rain = 0
KSB1 080803Z 27003KT 12/03 A3013 RMK A01 T01170030  RH  055%=      5-min Rain = 0
KSB1 080804Z 28003KT 12/03 A3013 RMK A01 T01200029  RH  054%=      5-min Rain = 0
KSB1 080805Z 28003KT 12/03 A3013 RMK A01 T01220029  RH  053%=      5-min Rain = 0
KSB1 080806Z 29003KT 13/03 A3013 RMK A01 T01250029  RH  052%=      5-min Rain = 0
KSB1 080807Z 30002KT 12/03 A3013 RMK A01 T01240031  RH  053%=      5-min Rain = 0
KSB1 080808Z 31002KT 12/03 A3013 RMK A01 T01220032  RH  054%=      5-min Rain = 0
KSB1 080809Z 36001KT 12/03 A3013 RMK A01 T01210031  RH  054%=      5-min Rain = 0
KSB1 080810Z 03002KT 12/03 A3013 RMK A01 T01210032  RH  054%=      5-min Rain = 0
KSB1 080811Z 05003KT 12/03 A3013 RMK A01 T01200031  RH  055%=      5-min Rain = 0
KSB1 080812Z 06003KT 12/03 A3013 RMK A01 T01200031  RH  055%=      5-min Rain = 0
KSB1 080813Z 06003KT 12/03 A3013 RMK A01 T01190032  RH  055%=      5-min Rain = 0
KSB1 080814Z 06003KT 12/03 A3013 RMK A01 T01180032  RH  055%=      5-min Rain = 0
KSB1 080815Z 07003KT 12/03 A3013 RMK A01 T01180032  RH  056%=      5-min Rain = 0
KSB1 080816Z 06003KT 12/03 A3013 RMK A01 T01180032  RH  056%=      5-min Rain = 0
KSB1 080817Z 06003KT 12/03 A3013 RMK A01 T01180032  RH  056%=      5-min Rain = 0
KSB1 080818Z 04003KT 12/03 A3013 RMK A01 T01180032  RH  056%=      5-min Rain = 0
KSB1 080819Z 02003KT 12/03 A3014 RMK A01 T01180031  RH  055%=      5-min Rain = 0
KSB1 080820Z 02002KT 12/03 A3014 RMK A01 T01180032  RH  056%=      5-min Rain = 0
KSB1 080821Z 02003KT 12/03 A3014 RMK A01 T01170032  RH  056%=      5-min Rain = 0
KSB1 080822Z 36004KT 12/03 A3014 RMK A01 T01150032  RH  057%=      5-min Rain = 0
KSB1 080823Z 00004KT 11/03 A3014 RMK A01 T01130032  RH  057%=      5-min Rain = 0
KSB1 080824Z 36004KT 11/03 A3014 RMK A01 T01130032  RH  057%=      5-min Rain = 0
KSB1 080825Z 00004KT 11/03 A3014 RMK A01 T01130032  RH  058%=      5-min Rain = 0
KSB1 080826Z 00004KT 11/03 A3014 RMK A01 T01120033  RH  058%=      5-min Rain = 0
KSB1 080827Z 00004KT 11/03 A3014 RMK A01 T01100033  RH  059%=      5-min Rain = 0
KSB1 080828Z 01005KT 11/03 A3014 RMK A01 T01100033  RH  059%=      5-min Rain = 0
KSB1 080829Z 01004KT 11/03 A3014 RMK A01 T01090033  RH  059%=      5-min Rain = 0
KSB1 080830Z 02003KT 11/03 A3014 RMK A01 T01090033  RH  059%=      5-min Rain = 0
KSB1 080831Z 02004KT 11/03 A3014 RMK A01 T01090032  RH  059%=      5-min Rain = 0
KSB1 080832Z 03003KT 11/03 A3014 RMK A01 T01090033  RH  059%=      5-min Rain = 0
KSB1 080833Z 03003KT 11/03 A3014 RMK A01 T01100033  RH  059%=      5-min Rain = 0
KSB1 080834Z 03003KT 11/03 A3014 RMK A01 T01100033  RH  059%=      5-min Rain = 0
KSB1 080835Z 02002KT 11/03 A3014 RMK A01 T01100032  RH  059%=      5-min Rain = 0
KSB1 080836Z 01003KT 11/03 A3013 RMK A01 T01100032  RH  059%=      5-min Rain = 0
KSB1 080837Z 04002KT 11/03 A3014 RMK A01 T01110033  RH  059%=      5-min Rain = 0
KSB1 080838Z 05002KT 11/03 A3014 RMK A01 T01100033  RH  059%=      5-min Rain = 0
KSB1 080839Z 03002KT 11/03 A3014 RMK A01 T01100033  RH  059%=      5-min Rain = 0
KSB1 080840Z 01003KT 11/03 A3014 RMK A01 T01100033  RH  059%=      5-min Rain = 0
KSB1 080841Z 03002KT 11/03 A3014 RMK A01 T01090033  RH  059%=      5-min Rain = 0
KSB1 080842Z 02002KT 11/03 A3014 RMK A01 T01090033  RH  060%=      5-min Rain = 0
KSB1 080843Z 04000KT 11/03 A3014 RMK A01 T01080033  RH  060%=      5-min Rain = 0
KSB1 080844Z 01001KT 11/03 A3014 RMK A01 T01080033  RH  060%=      5-min Rain = 0
KSB1 080845Z 03000KT 11/03 A3013 RMK A01 T01070033  RH  060%=      5-min Rain = 0
KSB1 080846Z 04000KT 11/03 A3013 RMK A01 T01070032  RH  060%=      5-min Rain = 0
KSB1 080847Z 04000KT 11/03 A3013 RMK A01 T01080032  RH  059%=      5-min Rain = 0
KSB1 080848Z 04000KT 11/03 A3013 RMK A01 T01080032  RH  059%=      5-min Rain = 0
KSB1 080849Z 17000KT 11/03 A3013 RMK A01 T01090032  RH  059%=      5-min Rain = 0
KSB1 080850Z 31000KT 11/03 A3013 RMK A01 T01090032  RH  059%=      5-min Rain = 0
KSB1 080851Z 32000KT 11/03 A3013 RMK A01 T01110032  RH  058%=      5-min Rain = 0
KSB1 080852Z 32000KT 11/03 A3013 RMK A01 T01120032  RH  058%=      5-min Rain = 0
KSB1 080853Z 00000KT 11/03 A3013 RMK A01 T01140032  RH  057%=      5-min Rain = 0
KSB1 080854Z 00000KT 12/03 A3013 RMK A01 T01150032  RH  056%=      5-min Rain = 0
KSB1 080855Z 28000KT 12/03 A3013 RMK A01 T01170032  RH  056%=      5-min Rain = 0
KSB1 080856Z 00000KT 12/03 A3013 RMK A01 T01190030  RH  054%=      5-min Rain = 0
KSB1 080857Z 04000KT 12/03 A3013 RMK A01 T01220028  RH  053%=      5-min Rain = 0
KSB1 080858Z 04001KT 13/03 A3013 RMK A01 T01250030  RH  052%=      5-min Rain = 0
KSB1 080859Z 04000KT 13/03 A3013 RMK A01 T01260029  RH  052%=      5-min Rain = 0
KSB1 080900Z 00000KT 13/03 A3013 RMK A01 T01260030  RH  052%=      5-min Rain = 0
KSB1 080901Z 09000KT 12/03 A3013 RMK A01 T01240031  RH  053%=      5-min Rain = 0
KSB1 080902Z 11001KT 12/03 A3014 RMK A01 T01190031  RH  055%=      5-min Rain = 0
KSB1 080903Z 12001KT 12/03 A3014 RMK A01 T01160031  RH  056%=      5-min Rain = 0
KSB1 080904Z 13000KT 12/03 A3014 RMK A01 T01150031  RH  056%=      5-min Rain = 0
KSB1 080905Z 00000KT 11/03 A3014 RMK A01 T01130031  RH  057%=      5-min Rain = 0
KSB1 080906Z 09000KT 11/03 A3014 RMK A01 T01130032  RH  057%=      5-min Rain = 0
KSB1 080907Z 08000KT 11/03 A3014 RMK A01 T01120032  RH  058%=      5-min Rain = 0
KSB1 080908Z 00000KT 11/03 A3014 RMK A01 T01120032  RH  058%=      5-min Rain = 0
KSB1 080909Z 32000KT 11/03 A3014 RMK A01 T01110032  RH  058%=      5-min Rain = 0
KSB1 080910Z 29001KT 11/03 A3014 RMK A01 T01110030  RH  057%=      5-min Rain = 0
KSB1 080911Z 27001KT 11/03 A3014 RMK A01 T01120028  RH  056%=      5-min Rain = 0
KSB1 080912Z 27002KT 11/03 A3014 RMK A01 T01140028  RH  056%=      5-min Rain = 0
KSB1 080913Z 28002KT 12/03 A3014 RMK A01 T01170027  RH  054%=      5-min Rain = 0
KSB1 080914Z 27002KT 12/03 A3014 RMK A01 T01210026  RH  052%=      5-min Rain = 0
KSB1 080915Z 27002KT 12/03 A3014 RMK A01 T01240026  RH  051%=      5-min Rain = 0
KSB1 080916Z 29002KT 13/03 A3014 RMK A01 T01270026  RH  050%=      5-min Rain = 0
KSB1 080917Z 29002KT 13/03 A3014 RMK A01 T01290026  RH  050%=      5-min Rain = 0
KSB1 080918Z 29002KT 13/03 A3014 RMK A01 T01300025  RH  049%=      5-min Rain = 0
KSB1 080919Z 28003KT 13/03 A3013 RMK A01 T01320025  RH  048%=      5-min Rain = 0
KSB1 080920Z 27004KT 13/03 A3013 RMK A01 T01330025  RH  048%=      5-min Rain = 0
KSB1 080921Z 27003KT 13/03 A3013 RMK A01 T01340025  RH  048%=      5-min Rain = 0
KSB1 080922Z 27003KT 13/03 A3013 RMK A01 T01340026  RH  048%=      5-min Rain = 0
KSB1 080923Z 26004KT 13/03 A3013 RMK A01 T01330025  RH  048%=      5-min Rain = 0
KSB1 080924Z 27004KT 13/03 A3013 RMK A01 T01330025  RH  048%=      5-min Rain = 0
KSB1 080925Z 27004KT 13/03 A3013 RMK A01 T01330026  RH  048%=      5-min Rain = 0
KSB1 080926Z 26005KT 13/03 A3013 RMK A01 T01320026  RH  049%=      5-min Rain = 0
KSB1 080927Z 26005KT 13/03 A3013 RMK A01 T01310027  RH  049%=      5-min Rain = 0
KSB1 080928Z 27004KT 13/03 A3013 RMK A01 T01300027  RH  049%=      5-min Rain = 0
KSB1 080929Z 28005KT 13/03 A3013 RMK A01 T01300026  RH  049%=      5-min Rain = 0
KSB1 080930Z 27005KT 13/03 A3012 RMK A01 T01310025  RH  049%=      5-min Rain = 0
KSB1 080931Z 27006KT 14/03 A3012 RMK A01 T01350025  RH  047%=      5-min Rain = 0
KSB1 080932Z 26006KT 14/03 A3012 RMK A01 T01380025  RH  046%=      5-min Rain = 0
KSB1 080933Z 27006KT 14/03 A3012 RMK A01 T01390025  RH  046%=      5-min Rain = 0
KSB1 080934Z 28006KT 14/03 A3012 RMK A01 T01390025  RH  046%=      5-min Rain = 0
KSB1 080935Z 28006KT 14/03 A3012 RMK A01 T01370025  RH  046%=      5-min Rain = 0
KSB1 080936Z 27007KT 14/02 A3012 RMK A01 T01380024  RH  046%=      5-min Rain = 0
KSB1 080937Z 27007KT 14/02 A3012 RMK A01 T01380024  RH  046%=      5-min Rain = 0
KSB1 080938Z 27007KT 14/03 A3012 RMK A01 T01380025  RH  046%=      5-min Rain = 0
KSB1 080939Z 27007KT 14/03 A3012 RMK A01 T01380025  RH  046%=      5-min Rain = 0
KSB1 080940Z 28007KT 14/03 A3012 RMK A01 T01360025  RH  047%=      5-min Rain = 0
KSB1 080941Z 27006KT 14/02 A3012 RMK A01 T01360024  RH  047%=      5-min Rain = 0
KSB1 080942Z 27006KT 14/03 A3012 RMK A01 T01370025  RH  047%=      5-min Rain = 0
KSB1 080943Z 27007KT 14/02 A3012 RMK A01 T01360024  RH  047%=      5-min Rain = 0
KSB1 080944Z 27007KT 14/02 A3012 RMK A01 T01370024  RH  046%=      5-min Rain = 0
KSB1 080945Z 27007KT 14/02 A3012 RMK A01 T01360024  RH  047%=      5-min Rain = 0
KSB1 080946Z 27008KT 14/02 A3012 RMK A01 T01370024  RH  046%=      5-min Rain = 0
KSB1 080947Z 27007KT 14/02 A3012 RMK A01 T01380024  RH  046%=      5-min Rain = 0
KSB1 080948Z 27007KT 14/02 A3012 RMK A01 T01380024  RH  046%=      5-min Rain = 0
KSB1 080949Z 27008KT 14/02 A3012 RMK A01 T01380024  RH  046%=      5-min Rain = 0
KSB1 080950Z 27007KT 14/02 A3012 RMK A01 T01380024  RH  046%=      5-min Rain = 0
KSB1 080951Z 27006KT 14/02 A3012 RMK A01 T01380024  RH  046%=      5-min Rain = 0
KSB1 080952Z 26006KT 14/02 A3012 RMK A01 T01380024  RH  046%=      5-min Rain = 0
KSB1 080953Z 27007KT 14/02 A3012 RMK A01 T01370024  RH  046%=      5-min Rain = 0
KSB1 080954Z 26006KT 14/02 A3012 RMK A01 T01370024  RH  046%=      5-min Rain = 0
KSB1 080955Z 27006KT 14/02 A3012 RMK A01 T01360024  RH  046%=      5-min Rain = 0
KSB1 080956Z 27006KT 14/02 A3012 RMK A01 T01360024  RH  046%=      5-min Rain = 0
KSB1 080957Z 26006KT 14/02 A3012 RMK A01 T01370023  RH  046%=      5-min Rain = 0
KSB1 080958Z 27006KT 14/02 A3012 RMK A01 T01380024  RH  046%=      5-min Rain = 0
KSB1 080959Z 27006KT 14/02 A3012 RMK A01 T01380024  RH  046%=      5-min Rain = 0
KSB1 081000Z 27005KT 14/02 A3012 RMK A01 T01380024  RH  046%=      5-min Rain = 0
KSB1 081001Z 26005KT 14/02 A3011 RMK A01 T01350024  RH  047%=      5-min Rain = 0
KSB1 081002Z 27005KT 13/02 A3011 RMK A01 T01340024  RH  047%=      5-min Rain = 0
KSB1 081003Z 27005KT 13/02 A3011 RMK A01 T01340024  RH  047%=      5-min Rain = 0
KSB1 081004Z 27005KT 13/02 A3011 RMK A01 T01330024  RH  048%=      5-min Rain = 0
KSB1 081005Z 27006KT 13/02 A3011 RMK A01 T01330024  RH  048%=      5-min Rain = 0
KSB1 081006Z 27006KT 13/02 A3011 RMK A01 T01340024  RH  047%=      5-min Rain = 0
KSB1 081007Z 27006KT 13/02 A3011 RMK A01 T01340024  RH  047%=      5-min Rain = 0
KSB1 081008Z 27006KT 14/02 A3011 RMK A01 T01350024  RH  047%=      5-min Rain = 0
KSB1 081009Z 27006KT 14/02 A3011 RMK A01 T01350024  RH  047%=      5-min Rain = 0
KSB1 081010Z 26006KT 14/02 A3011 RMK A01 T01350024  RH  047%=      5-min Rain = 0
KSB1 081011Z 26006KT 14/02 A3011 RMK A01 T01350024  RH  047%=      5-min Rain = 0
KSB1 081012Z 27005KT 14/02 A3011 RMK A01 T01350024  RH  047%=      5-min Rain = 0
KSB1 081013Z 26006KT 13/02 A3011 RMK A01 T01340024  RH  047%=      5-min Rain = 0
KSB1 081014Z 26006KT 13/02 A3011 RMK A01 T01330024  RH  047%=      5-min Rain = 0
KSB1 081015Z 26006KT 13/02 A3011 RMK A01 T01330024  RH  047%=      5-min Rain = 0
KSB1 081016Z 26006KT 13/02 A3011 RMK A01 T01330024  RH  047%=      5-min Rain = 0
KSB1 081017Z 27005KT 13/02 A3011 RMK A01 T01330024  RH  048%=      5-min Rain = 0
KSB1 081018Z 26006KT 13/02 A3011 RMK A01 T01310024  RH  048%=      5-min Rain = 0
KSB1 081019Z 26006KT 13/02 A3011 RMK A01 T01300024  RH  048%=      5-min Rain = 0
KSB1 081020Z 27006KT 13/02 A3011 RMK A01 T01300024  RH  049%=      5-min Rain = 0
KSB1 081021Z 27006KT 13/02 A3011 RMK A01 T01290024  RH  049%=      5-min Rain = 0
KSB1 081022Z 27007KT 13/02 A3011 RMK A01 T01280024  RH  049%=      5-min Rain = 0
KSB1 081023Z 26007KT 13/03 A3011 RMK A01 T01280025  RH  049%=      5-min Rain = 0
KSB1 081024Z 27006KT 13/03 A3011 RMK A01 T01280025  RH  049%=      5-min Rain = 0
KSB1 081025Z 27007KT 13/02 A3011 RMK A01 T01270024  RH  049%=      5-min Rain = 0
KSB1 081026Z 27007KT 13/03 A3011 RMK A01 T01280025  RH  049%=      5-min Rain = 0
KSB1 081027Z 27007KT 13/03 A3011 RMK A01 T01270025  RH  050%=      5-min Rain = 0
KSB1 081028Z 27006KT 13/03 A3011 RMK A01 T01270025  RH  050%=      5-min Rain = 0
KSB1 081029Z 27007KT 13/03 A3011 RMK A01 T01260025  RH  050%=      5-min Rain = 0
KSB1 081030Z 27007KT 13/03 A3011 RMK A01 T01260025  RH  050%=      5-min Rain = 0
KSB1 081031Z 28007KT 13/03 A3011 RMK A01 T01270025  RH  050%=      5-min Rain = 0
KSB1 081032Z 27006KT 13/03 A3011 RMK A01 T01280025  RH  049%=      5-min Rain = 0
KSB1 081033Z 27006KT 13/03 A3011 RMK A01 T01300025  RH  049%=      5-min Rain = 0
KSB1 081034Z 27006KT 13/03 A3011 RMK A01 T01310025  RH  049%=      5-min Rain = 0
KSB1 081035Z 27006KT 13/03 A3011 RMK A01 T01310025  RH  049%=      5-min Rain = 0
KSB1 081036Z 27006KT 13/03 A3011 RMK A01 T01310026  RH  049%=      5-min Rain = 0
KSB1 081037Z 27007KT 13/03 A3011 RMK A01 T01310026  RH  049%=      5-min Rain = 0
KSB1 081038Z 27006KT 13/03 A3011 RMK A01 T01320026  RH  049%=      5-min Rain = 0
KSB1 081039Z 27006KT 13/03 A3011 RMK A01 T01330026  RH  048%=      5-min Rain = 0
KSB1 081040Z 27006KT 13/03 A3011 RMK A01 T01330026  RH  048%=      5-min Rain = 0
KSB1 081041Z 27006KT 13/03 A3011 RMK A01 T01330026  RH  048%=      5-min Rain = 0
KSB1 081042Z 27006KT 13/03 A3011 RMK A01 T01330026  RH  048%=      5-min Rain = 0
KSB1 081043Z 27006KT 13/03 A3011 RMK A01 T01330026  RH  048%=      5-min Rain = 0
KSB1 081044Z 27007KT 13/03 A3011 RMK A01 T01330026  RH  048%=      5-min Rain = 0
KSB1 081045Z 27007KT 13/03 A3011 RMK A01 T01330027  RH  048%=      5-min Rain = 0
KSB1 081046Z 26008KT 13/03 A3011 RMK A01 T01330027  RH  048%=      5-min Rain = 0
KSB1 081047Z 27008KT 13/03 A3011 RMK A01 T01330026  RH  048%=      5-min Rain = 0
KSB1 081048Z 27007KT 13/03 A3011 RMK A01 T01330026  RH  048%=      5-min Rain = 0
KSB1 081049Z 27008KT 13/03 A3011 RMK A01 T01320026  RH  049%=      5-min Rain = 0
KSB1 081050Z 27008KT 13/03 A3011 RMK A01 T01320027  RH  049%=      5-min Rain = 0
KSB1 081051Z 27007KT 13/03 A3011 RMK A01 T01320027  RH  049%=      5-min Rain = 0
KSB1 081052Z 27008KT 13/03 A3011 RMK A01 T01310026  RH  049%=      5-min Rain = 0
KSB1 081053Z 27007KT 13/03 A3011 RMK A01 T01300027  RH  049%=      5-min Rain = 0
KSB1 081054Z 27007KT 13/03 A3011 RMK A01 T01290027  RH  050%=      5-min Rain = 0
KSB1 081055Z 26007KT 13/03 A3011 RMK A01 T01280027  RH  050%=      5-min Rain = 0
KSB1 081056Z 26008KT 13/03 A3011 RMK A01 T01270027  RH  050%=      5-min Rain = 0
KSB1 081057Z 26007KT 13/03 A3011 RMK A01 T01260026  RH  051%=      5-min Rain = 0
KSB1 081058Z 26007KT 13/03 A3011 RMK A01 T01260026  RH  051%=      5-min Rain = 0
KSB1 081059Z 27007KT 13/03 A3011 RMK A01 T01260026  RH  051%=      5-min Rain = 0
KSB1 081100Z 27006KT 13/03 A3011 RMK A01 T01260026  RH  051%=      5-min Rain = 0
KSB1 081101Z 26006KT 13/03 A3011 RMK A01 T01270026  RH  050%=      5-min Rain = 0
KSB1 081102Z 26007KT 13/03 A3011 RMK A01 T01280026  RH  050%=      5-min Rain = 0
KSB1 081103Z 27006KT 13/03 A3011 RMK A01 T01300026  RH  049%=      5-min Rain = 0
KSB1 081104Z 27006KT 13/03 A3011 RMK A01 T01330026  RH  048%=      5-min Rain = 0
KSB1 081105Z 27007KT 14/03 A3011 RMK A01 T01350026  RH  048%=      5-min Rain = 0
KSB1 081106Z 26007KT 14/03 A3011 RMK A01 T01360026  RH  047%=      5-min Rain = 0
KSB1 081107Z 26007KT 14/03 A3011 RMK A01 T01370026  RH  047%=      5-min Rain = 0
KSB1 081108Z 25007KT 14/03 A3011 RMK A01 T01370026  RH  047%=      5-min Rain = 0
KSB1 081109Z 25007KT 14/03 A3011 RMK A01 T01360026  RH  047%=      5-min Rain = 0
KSB1 081110Z 25007KT 13/03 A3011 RMK A01 T01340025  RH  048%=      5-min Rain = 0
KSB1 081111Z 25007KT 13/03 A3011 RMK A01 T01320025  RH  048%=      5-min Rain = 0
KSB1 081112Z 25007KT 13/03 A3011 RMK A01 T01300025  RH  049%=      5-min Rain = 0
KSB1 081113Z 25008KT 13/03 A3011 RMK A01 T01290026  RH  049%=      5-min Rain = 0
KSB1 081114Z 25009KT 13/03 A3011 RMK A01 T01280026  RH  050%=      5-min Rain = 0
KSB1 081115Z 25009KT 13/03 A3011 RMK A01 T01280026  RH  050%=      5-min Rain = 0
KSB1 081116Z 25009KT 13/03 A301 RMK A01 T01270026  RH  050%=      5-min Rain = 0
KSB1 081117Z 25009KT 13/03 A301 RMK A01 T01260026  RH  050%=      5-min Rain = 0
KSB1 081118Z 25009KT 13/03 A301 RMK A01 T01250026  RH  051%=      5-min Rain = 0
KSB1 081119Z 25009KT 13/03 A301 RMK A01 T01250026  RH  051%=      5-min Rain = 0
KSB1 081120Z 25008KT 12/03 A301 RMK A01 T01240026  RH  051%=      5-min Rain = 0
KSB1 081121Z 26007KT 12/03 A301 RMK A01 T01240026  RH  051%=      5-min Rain = 0
KSB1 081122Z 26007KT 12/03 A301 RMK A01 T01230026  RH  052%=      5-min Rain = 0
KSB1 081123Z 25007KT 12/03 A301 RMK A01 T01230026  RH  052%=      5-min Rain = 0
KSB1 081124Z 25007KT 12/03 A301 RMK A01 T01240026  RH  051%=      5-min Rain = 0
KSB1 081125Z 25007KT 12/03 A301 RMK A01 T01240026  RH  051%=      5-min Rain = 0
KSB1 081126Z 25008KT 13/03 A301 RMK A01 T01250027  RH  051%=      5-min Rain = 0
KSB1 081127Z 25007KT 13/03 A301 RMK A01 T01250027  RH  051%=      5-min Rain = 0
KSB1 081128Z 24009KT 13/03 A301 RMK A01 T01250027  RH  051%=      5-min Rain = 0
KSB1 081129Z 24008KT 12/03 A301 RMK A01 T01240027  RH  051%=      5-min Rain = 0
KSB1 081130Z 24008KT 12/03 A301 RMK A01 T01230027  RH  052%=      5-min Rain = 0
KSB1 081131Z 24008KT 12/03 A301 RMK A01 T01230027  RH  052%=      5-min Rain = 0
KSB1 081132Z 24008KT 12/03 A301 RMK A01 T01230027  RH  052%=      5-min Rain = 0
KSB1 081133Z 24008KT 12/03 A301 RMK A01 T01220027  RH  052%=      5-min Rain = 0
KSB1 081134Z 24008KT 12/03 A301 RMK A01 T01230027  RH  052%=      5-min Rain = 0
KSB1 081135Z 24008KT 12/03 A301 RMK A01 T01230027  RH  052%=      5-min Rain = 0
KSB1 081136Z 25007KT 12/03 A301 RMK A01 T01210027  RH  053%=      5-min Rain = 0
KSB1 081137Z 24008KT 12/03 A301 RMK A01 T01200027  RH  053%=      5-min Rain = 0
KSB1 081138Z 24008KT 12/03 A301 RMK A01 T01210028  RH  053%=      5-min Rain = 0
KSB1 081139Z 24009KT 12/03 A301 RMK A01 T01220028  RH  053%=      5-min Rain = 0
KSB1 081140Z 25008KT 12/03 A301 RMK A01 T01220028  RH  053%=      5-min Rain = 0
KSB1 081141Z 24008KT 12/03 A301 RMK A01 T01210028  RH  053%=      5-min Rain = 0
KSB1 081142Z 24008KT 12/03 A301 RMK A01 T01210029  RH  053%=      5-min Rain = 0
KSB1 081143Z 25008KT 12/03 A301 RMK A01 T01210029  RH  053%=      5-min Rain = 0
KSB1 081144Z 24008KT 12/03 A301 RMK A01 T01200029  RH  053%=      5-min Rain = 0
KSB1 081145Z 24008KT 12/03 A301 RMK A01 T01200029  RH  054%=      5-min Rain = 0
KSB1 081146Z 24008KT 12/03 A301 RMK A01 T01200029  RH  053%=      5-min Rain = 0
KSB1 081147Z 24008KT 12/03 A3011 RMK A01 T01210029  RH  053%=      5-min Rain = 0
KSB1 081148Z 25007KT 12/03 A3011 RMK A01 T01210029  RH  053%=      5-min Rain = 0
KSB1 081149Z 25007KT 12/03 A3011 RMK A01 T01210029  RH  053%=      5-min Rain = 0
KSB1 081150Z 26007KT 12/03 A3011 RMK A01 T01230029  RH  053%=      5-min Rain = 0
KSB1 081151Z 26007KT 13/03 A3011 RMK A01 T01260030  RH  052%=      5-min Rain = 0
KSB1 081152Z 26007KT 13/03 A3011 RMK A01 T01290030  RH  051%=      5-min Rain = 0
KSB1 081153Z 25008KT 13/03 A3011 RMK A01 T01320029  RH  050%=      5-min Rain = 0
KSB1 081154Z 26007KT 14/03 A3011 RMK A01 T01350030  RH  049%=      5-min Rain = 0
KSB1 081155Z 24008KT 14/03 A3011 RMK A01 T01360030  RH  049%=      5-min Rain = 0
KSB1 081156Z 25008KT 14/03 A3011 RMK A01 T01380030  RH  048%=      5-min Rain = 0
KSB1 081157Z 26008KT 14/03 A3011 RMK A01 T01400030  RH  047%=      5-min Rain = 0
KSB1 081158Z 26007KT 14/03 A3011 RMK A01 T01410029  RH  047%=      5-min Rain = 0
KSB1 081159Z 27006KT 14/03 A3011 RMK A01 T01380029  RH  048%=      5-min Rain = 0
KSB1 081200Z 28006KT 13/03 A3011 RMK A01 T01330029  RH  049%=      5-min Rain = 0
KSB1 081201Z 27006KT 13/03 A3011 RMK A01 T01320029  RH  050%=      5-min Rain = 0
KSB1 081202Z 27006KT 13/03 A3011 RMK A01 T01320029  RH  050%=      5-min Rain = 0
KSB1 081203Z 28007KT 13/03 A3011 RMK A01 T01330030  RH  050%=      5-min Rain = 0
KSB1 081204Z 28006KT 13/03 A3011 RMK A01 T01310029  RH  050%=      5-min Rain = 0
KSB1 081205Z 28006KT 13/03 A3011 RMK A01 T01310029  RH  050%=      5-min Rain = 0
KSB1 081206Z 26006KT 13/03 A3011 RMK A01 T01320029  RH  050%=      5-min Rain = 0
KSB1 081207Z 24007KT 13/03 A3011 RMK A01 T01340029  RH  049%=      5-min Rain = 0
KSB1 081208Z 25006KT 14/03 A3011 RMK A01 T01350029  RH  049%=      5-min Rain = 0
KSB1 081209Z 24006KT 14/03 A3011 RMK A01 T01350029  RH  049%=      5-min Rain = 0
KSB1 081210Z 27006KT 13/03 A3011 RMK A01 T01320029  RH  049%=      5-min Rain = 0
KSB1 081211Z 27006KT 13/03 A3011 RMK A01 T01290029  RH  051%=      5-min Rain = 0
KSB1 081212Z 25006KT 13/03 A3011 RMK A01 T01270029  RH  051%=      5-min Rain = 0
KSB1 081213Z 25006KT 13/03 A3011 RMK A01 T01260029  RH  051%=      5-min Rain = 0
KSB1 081214Z 25007KT 13/03 A3011 RMK A01 T01250029  RH  052%=      5-min Rain = 0
KSB1 081215Z 26006KT 13/03 A3011 RMK A01 T01250029  RH  052%=      5-min Rain = 0
KSB1 081216Z 26005KT 13/03 A3011 RMK A01 T01260029  RH  052%=      5-min Rain = 0
KSB1 081217Z 26005KT 13/03 A3011 RMK A01 T01250029  RH  052%=      5-min Rain = 0
KSB1 081218Z 26006KT 13/03 A3011 RMK A01 T01260029  RH  052%=      5-min Rain = 0
KSB1 081219Z 27006KT 13/03 A3011 RMK A01 T01270029  RH  051%=      5-min Rain = 0
KSB1 081220Z 24005KT 13/03 A3011 RMK A01 T01270029  RH  051%=      5-min Rain = 0
KSB1 081221Z 25007KT 13/03 A3011 RMK A01 T01270029  RH  051%=      5-min Rain = 0
KSB1 081222Z 25007KT 13/03 A3011 RMK A01 T01270028  RH  051%=      5-min Rain = 0
KSB1 081223Z 26006KT 13/03 A3011 RMK A01 T01270029  RH  051%=      5-min Rain = 0
KSB1 081224Z 27006KT 13/03 A3011 RMK A01 T01260028  RH  051%=      5-min Rain = 0
KSB1 081225Z 25007KT 13/03 A3011 RMK A01 T01270028  RH  051%=      5-min Rain = 0
KSB1 081226Z 24007KT 13/03 A3011 RMK A01 T01280028  RH  050%=      5-min Rain = 0
KSB1 081227Z 25008KT 13/03 A3011 RMK A01 T01290028  RH  050%=      5-min Rain = 0
KSB1 081228Z 24009KT 13/03 A3011 RMK A01 T01280027  RH  050%=      5-min Rain = 0
KSB1 081229Z 23007KT 13/03 A3011 RMK A01 T01270027  RH  050%=      5-min Rain = 0
KSB1 081230Z 24006KT 13/03 A3011 RMK A01 T01260027  RH  051%=      5-min Rain = 0
KSB1 081231Z 26006KT 12/03 A3011 RMK A01 T01240027  RH  052%=      5-min Rain = 0
KSB1 081232Z 25007KT 12/03 A3011 RMK A01 T01230027  RH  052%=      5-min Rain = 0
KSB1 081233Z 26007KT 13/03 A3011 RMK A01 T01260028  RH  051%=      5-min Rain = 0
KSB1 081234Z 25007KT 13/03 A3011 RMK A01 T01290028  RH  050%=      5-min Rain = 0
KSB1 081235Z 25006KT 13/03 A3011 RMK A01 T01310028  RH  050%=      5-min Rain = 0
KSB1 081236Z 26006KT 13/03 A3011 RMK A01 T01310028  RH  050%=      5-min Rain = 0
KSB1 081237Z 27007KT 13/03 A3011 RMK A01 T01300027  RH  050%=      5-min Rain = 0
KSB1 081238Z 26006KT 13/03 A3011 RMK A01 T01280027  RH  050%=      5-min Rain = 0
KSB1 081239Z 28007KT 13/03 A3011 RMK A01 T01280028  RH  050%=      5-min Rain = 0
KSB1 081240Z 26007KT 13/03 A3011 RMK A01 T01280027  RH  050%=      5-min Rain = 0
KSB1 081241Z 24006KT 13/03 A3011 RMK A01 T01320028  RH  049%=      5-min Rain = 0
KSB1 081242Z 23006KT 14/03 A3011 RMK A01 T01350028  RH  048%=      5-min Rain = 0
KSB1 081243Z 26006KT 13/03 A3011 RMK A01 T01330027  RH  049%=      5-min Rain = 0
KSB1 081244Z 26006KT 13/03 A3011 RMK A01 T01300027  RH  050%=      5-min Rain = 0
KSB1 081245Z 26006KT 13/03 A3011 RMK A01 T01290027  RH  050%=      5-min Rain = 0
KSB1 081246Z 25006KT 13/03 A3011 RMK A01 T01290027  RH  050%=      5-min Rain = 0
KSB1 081247Z 23007KT 13/03 A3011 RMK A01 T01300027  RH  050%=      5-min Rain = 0
KSB1 081248Z 23006KT 13/03 A3011 RMK A01 T01300027  RH  050%=      5-min Rain = 0
KSB1 081249Z 24006KT 13/03 A3011 RMK A01 T01290028  RH  050%=      5-min Rain = 0
KSB1 081250Z 25007KT 13/03 A3011 RMK A01 T01280027  RH  050%=      5-min Rain = 0
KSB1 081251Z 26006KT 13/03 A3011 RMK A01 T01250027  RH  051%=      5-min Rain = 0
KSB1 081252Z 24006KT 12/03 A3011 RMK A01 T01230027  RH  052%=      5-min Rain = 0
KSB1 081253Z 24007KT 12/03 A3011 RMK A01 T01240027  RH  052%=      5-min Rain = 0
KSB1 081254Z 25006KT 13/03 A3011 RMK A01 T01250028  RH  052%=      5-min Rain = 0
KSB1 081255Z 26006KT 13/03 A3011 RMK A01 T01260027  RH  051%=      5-min Rain = 0
KSB1 081256Z 26006KT 13/03 A3011 RMK A01 T01260027  RH  051%=      5-min Rain = 0
KSB1 081257Z 25006KT 13/03 A3011 RMK A01 T01250027  RH  051%=      5-min Rain = 0
KSB1 081258Z 25007KT 12/03 A3012 RMK A01 T01230027  RH  052%=      5-min Rain = 0
KSB1 081259Z 25007KT 12/03 A3012 RMK A01 T01230027  RH  052%=      5-min Rain = 0
KSB1 081300Z 26005KT 12/03 A3011 RMK A01 T01230028  RH  052%=      5-min Rain = 0
KSB1 081301Z 26006KT 12/03 A3011 RMK A01 T01220028  RH  052%=      5-min Rain = 0
KSB1 081302Z 25007KT 12/03 A3011 RMK A01 T01240028  RH  052%=      5-min Rain = 0
KSB1 081303Z 23007KT 13/03 A3011 RMK A01 T01250028  RH  051%=      5-min Rain = 0
KSB1 081304Z 24007KT 13/03 A3011 RMK A01 T01260028  RH  051%=      5-min Rain = 0
KSB1 081305Z 24007KT 13/03 A3011 RMK A01 T01270028  RH  051%=      5-min Rain = 0
KSB1 081306Z 24007KT 13/03 A3011 RMK A01 T01270028  RH  051%=      5-min Rain = 0
KSB1 081307Z 24007KT 13/03 A3011 RMK A01 T01270028  RH  051%=      5-min Rain = 0
KSB1 081308Z 25006KT 13/03 A3011 RMK A01 T01260028  RH  051%=      5-min Rain = 0
KSB1 081309Z 27005KT 12/03 A3011 RMK A01 T01240028  RH  052%=      5-min Rain = 0
KSB1 081310Z 24005KT 12/03 A3011 RMK A01 T01230028  RH  052%=      5-min Rain = 0
KSB1 081311Z 24006KT 12/03 A3011 RMK A01 T01240028  RH  052%=      5-min Rain = 0
KSB1 081312Z 23007KT 13/03 A3011 RMK A01 T01260028  RH  051%=      5-min Rain = 0
KSB1 081313Z 23008KT 13/03 A3011 RMK A01 T01260028  RH  051%=      5-min Rain = 0
KSB1 081314Z 24008KT 13/03 A3011 RMK A01 T01280029  RH  051%=      5-min Rain = 0
KSB1 081315Z 25007KT 13/03 A3012 RMK A01 T01290029  RH  051%=      5-min Rain = 0
KSB1 081316Z 24007KT 13/03 A3011 RMK A01 T01270028  RH  051%=      5-min Rain = 0
KSB1 081317Z 23007KT 13/03 A3011 RMK A01 T01260028  RH  051%=      5-min Rain = 0
KSB1 081318Z 25007KT 13/03 A3012 RMK A01 T01280029  RH  051%=      5-min Rain = 0
KSB1 081319Z 24008KT 13/03 A3012 RMK A01 T01280029  RH  051%=      5-min Rain = 0
KSB1 081320Z 25007KT 13/03 A3012 RMK A01 T01270029  RH  051%=      5-min Rain = 0
KSB1 081321Z 26006KT 13/03 A3012 RMK A01 T01250028  RH  052%=      5-min Rain = 0
KSB1 081322Z 26006KT 12/03 A3012 RMK A01 T01240028  RH  052%=      5-min Rain = 0
KSB1 081323Z 26006KT 12/03 A3012 RMK A01 T01240028  RH  052%=      5-min Rain = 0
KSB1 081324Z 24006KT 13/03 A3012 RMK A01 T01250028  RH  052%=      5-min Rain = 0
KSB1 081325Z 24006KT 13/03 A3012 RMK A01 T01270029  RH  051%=      5-min Rain = 0
KSB1 081326Z 24005KT 13/03 A3012 RMK A01 T01270028  RH  051%=      5-min Rain = 0
KSB1 081327Z 24005KT 13/03 A3012 RMK A01 T01270029  RH  051%=      5-min Rain = 0
KSB1 081328Z 24005KT 13/03 A3012 RMK A01 T01280029  RH  051%=      5-min Rain = 0
KSB1 081329Z 25006KT 13/03 A3012 RMK A01 T01280029  RH  051%=      5-min Rain = 0
KSB1 081330Z 24006KT 13/03 A3012 RMK A01 T01270029  RH  051%=      5-min Rain = 0
KSB1 081331Z 23008KT 13/03 A3012 RMK A01 T01260029  RH  051%=      5-min Rain = 0
KSB1 081332Z 23008KT 13/03 A3012 RMK A01 T01270029  RH  051%=      5-min Rain = 0
KSB1 081333Z 23005KT 13/03 A3012 RMK A01 T01310030  RH  050%=      5-min Rain = 0
KSB1 081334Z 24005KT 13/03 A3012 RMK A01 T01310030  RH  050%=      5-min Rain = 0
KSB1 081335Z 26004KT 13/03 A3012 RMK A01 T01280029  RH  051%=      5-min Rain = 0
KSB1 081336Z 29005KT 13/03 A3012 RMK A01 T01260029  RH  052%=      5-min Rain = 0
KSB1 081337Z 26004KT 13/03 A3012 RMK A01 T01250029  RH  052%=      5-min Rain = 0
KSB1 081338Z 24007KT 13/03 A3012 RMK A01 T01260029  RH  052%=      5-min Rain = 0
KSB1 081339Z 27005KT 13/03 A3012 RMK A01 T01300031  RH  051%=      5-min Rain = 0
KSB1 081340Z 27004KT 13/03 A3012 RMK A01 T01300030  RH  051%=      5-min Rain = 0
KSB1 081341Z 26004KT 13/03 A3012 RMK A01 T01300030  RH  051%=      5-min Rain = 0
KSB1 081342Z 29005KT 13/03 A3012 RMK A01 T01290030  RH  051%=      5-min Rain = 0
KSB1 081343Z 28003KT 13/03 A3012 RMK A01 T01290030  RH  051%=      5-min Rain = 0
KSB1 081344Z 26003KT 13/03 A3012 RMK A01 T01290030  RH  051%=      5-min Rain = 0
KSB1 081345Z 25003KT 13/03 A3012 RMK A01 T01290030  RH  051%=      5-min Rain = 0
KSB1 081346Z 27005KT 13/03 A3012 RMK A01 T01290030  RH  051%=      5-min Rain = 0
KSB1 081347Z 28005KT 13/03 A3012 RMK A01 T01280030  RH  051%=      5-min Rain = 0
KSB1 081348Z 27003KT 13/03 A3012 RMK A01 T01260030  RH  052%=      5-min Rain = 0
KSB1 081349Z 24003KT 13/03 A3012 RMK A01 T01260030  RH  052%=      5-min Rain = 0
KSB1 081350Z 26003KT 13/03 A3012 RMK A01 T01280031  RH  052%=      5-min Rain = 0
KSB1 081351Z 26004KT 13/03 A3012 RMK A01 T01290031  RH  051%=      5-min Rain = 0
KSB1 081352Z 24005KT 13/03 A3012 RMK A01 T01300031  RH  051%=      5-min Rain = 0
KSB1 081353Z 24004KT 13/03 A3012 RMK A01 T01320032  RH  051%=      5-min Rain = 0
KSB1 081354Z 26004KT 13/03 A3012 RMK A01 T01310031  RH  051%=      5-min Rain = 0
KSB1 081355Z 26003KT 13/03 A3012 RMK A01 T01300031  RH  051%=      5-min Rain = 0
KSB1 081356Z 26003KT 13/03 A3012 RMK A01 T01320031  RH  051%=      5-min Rain = 0
KSB1 081357Z 26004KT 13/03 A3012 RMK A01 T01320031  RH  050%=      5-min Rain = 0
KSB1 081358Z 25003KT 13/03 A3011 RMK A01 T01300031  RH  051%=      5-min Rain = 0
KSB1 081359Z 25002KT 13/03 A3011 RMK A01 T01300031  RH  051%=      5-min Rain = 0
KSB1 081400Z 24002KT 13/03 A3011 RMK A01 T01320031  RH  050%=      5-min Rain = 0
KSB1 081401Z 25002KT 13/03 A3012 RMK A01 T01330031  RH  050%=      5-min Rain = 0
KSB1 081402Z 26003KT 13/03 A3012 RMK A01 T01330031  RH  050%=      5-min Rain = 0
KSB1 081403Z 27003KT 13/03 A3012 RMK A01 T01320032  RH  050%=      5-min Rain = 0
KSB1 081404Z 26003KT 13/03 A3012 RMK A01 T01320032  RH  051%=      5-min Rain = 0
KSB1 081405Z 21004KT 13/03 A3012 RMK A01 T01320032  RH  051%=      5-min Rain = 0
KSB1 081406Z 23004KT 13/03 A3012 RMK A01 T01330032  RH  050%=      5-min Rain = 0
KSB1 081407Z 26004KT 13/03 A3012 RMK A01 T01340032  RH  050%=      5-min Rain = 0
KSB1 081408Z 25003KT 13/03 A3012 RMK A01 T01330033  RH  050%=      5-min Rain = 0
KSB1 081409Z 24003KT 13/03 A3012 RMK A01 T01320032  RH  051%=      5-min Rain = 0
KSB1 081410Z 26004KT 13/03 A3012 RMK A01 T01320032  RH  051%=      5-min Rain = 0
KSB1 081411Z 27005KT 13/03 A3012 RMK A01 T01310033  RH  051%=      5-min Rain = 0
KSB1 081412Z 27004KT 13/03 A3012 RMK A01 T01290033  RH  052%=      5-min Rain = 0
KSB1 081413Z 26004KT 13/03 A3012 RMK A01 T01280033  RH  052%=      5-min Rain = 0
KSB1 081414Z 24005KT 13/03 A3012 RMK A01 T01280032  RH  052%=      5-min Rain = 0
KSB1 081415Z 25005KT 13/03 A3012 RMK A01 T01290033  RH  052%=      5-min Rain = 0
KSB1 081416Z 28004KT 13/03 A3012 RMK A01 T01300033  RH  052%=      5-min Rain = 0
KSB1 081417Z 26005KT 13/03 A3012 RMK A01 T01290033  RH  052%=      5-min Rain = 0
KSB1 081418Z 25005KT 13/03 A3012 RMK A01 T01290033  RH  052%=      5-min Rain = 0
KSB1 081419Z 26006KT 13/03 A3012 RMK A01 T01300034  RH  052%=      5-min Rain = 0
KSB1 081420Z 27005KT 13/03 A3012 RMK A01 T01300034  RH  052%=      5-min Rain = 0
KSB1 081421Z 23003KT 13/04 A3012 RMK A01 T01300035  RH  052%=      5-min Rain = 0
KSB1 081422Z 25006KT 13/04 A3012 RMK A01 T01300035  RH  053%=      5-min Rain = 0
KSB1 081423Z 25005KT 13/04 A3012 RMK A01 T01300035  RH  052%=      5-min Rain = 0
KSB1 081424Z 27004KT 13/04 A3012 RMK A01 T01300035  RH  053%=      5-min Rain = 0
KSB1 081425Z 24004KT 13/04 A3012 RMK A01 T01290035  RH  053%=      5-min Rain = 0
KSB1 081426Z 26004KT 13/04 A3012 RMK A01 T01290035  RH  053%=      5-min Rain = 0
KSB1 081427Z 27005KT 13/04 A3012 RMK A01 T01290035  RH  053%=      5-min Rain = 0
KSB1 081428Z 26004KT 13/04 A3012 RMK A01 T01290035  RH  053%=      5-min Rain = 0
KSB1 081429Z 27005KT 13/04 A3013 RMK A01 T01280035  RH  053%=      5-min Rain = 0
KSB1 081430Z 26005KT 13/04 A3013 RMK A01 T01290035  RH  053%=      5-min Rain = 0
KSB1 081431Z 26004KT 13/04 A3013 RMK A01 T01290035  RH  053%=      5-min Rain = 0
KSB1 081432Z 28004KT 13/04 A3013 RMK A01 T01290036  RH  053%=      5-min Rain = 0
KSB1 081433Z 29004KT 13/04 A3013 RMK A01 T01300036  RH  053%=      5-min Rain = 0
KSB1 081434Z 26005KT 13/04 A3013 RMK A01 T01310036  RH  052%=      5-min Rain = 0
KSB1 081435Z 26007KT 13/04 A3013 RMK A01 T01330037  RH  052%=      5-min Rain = 0
KSB1 081436Z 27004KT 14/04 A3013 RMK A01 T01360037  RH  051%=      5-min Rain = 0
KSB1 081437Z 26004KT 14/04 A3013 RMK A01 T01370038  RH  051%=      5-min Rain = 0
KSB1 081438Z 26003KT 14/04 A3012 RMK A01 T01380038  RH  051%=      5-min Rain = 0
KSB1 081439Z 26003KT 14/04 A3012 RMK A01 T01380038  RH  051%=      5-min Rain = 0
KSB1 081440Z 24005KT 14/04 A3012 RMK A01 T01370039  RH  051%=      5-min Rain = 0
KSB1 081441Z 24005KT 14/04 A3012 RMK A01 T01370038  RH  051%=      5-min Rain = 0
KSB1 081442Z 22005KT 14/04 A3012 RMK A01 T01370039  RH  052%=      5-min Rain = 0
KSB1 081443Z 23005KT 14/04 A3012 RMK A01 T01370040  RH  052%=      5-min Rain = 0
KSB1 081444Z 22005KT 14/04 A3012 RMK A01 T01370040  RH  052%=      5-min Rain = 0
KSB1 081445Z 23005KT 14/04 A3012 RMK A01 T01370040  RH  052%=      5-min Rain = 0
KSB1 081446Z 25004KT 14/04 A3013 RMK A01 T01370041  RH  052%=      5-min Rain = 0
KSB1 081447Z 26003KT 14/04 A3013 RMK A01 T01370041  RH  052%=      5-min Rain = 0
KSB1 081448Z 26003KT 14/04 A3012 RMK A01 T01370041  RH  052%=      5-min Rain = 0
KSB1 081449Z 26003KT 14/04 A3012 RMK A01 T01380041  RH  052%=      5-min Rain = 0
KSB1 081450Z 26002KT 14/04 A3012 RMK A01 T01390040  RH  051%=      5-min Rain = 0
KSB1 081451Z 25002KT 14/04 A3012 RMK A01 T01400040  RH  051%=      5-min Rain = 0
KSB1 081452Z 24004KT 14/04 A3012 RMK A01 T01410041  RH  051%=      5-min Rain = 0
KSB1 081453Z 23004KT 14/04 A3012 RMK A01 T01420041  RH  051%=      5-min Rain = 0
KSB1 081454Z 23005KT 14/04 A3012 RMK A01 T01430042  RH  050%=      5-min Rain = 0
KSB1 081455Z 23005KT 14/04 A3012 RMK A01 T01430042  RH  051%=      5-min Rain = 0
KSB1 081456Z 22006KT 14/04 A3012 RMK A01 T01420043  RH  051%=      5-min Rain = 0
KSB1 081457Z 23007KT 14/04 A3012 RMK A01 T01430042  RH  051%=      5-min Rain = 0
KSB1 081458Z 27003KT 15/04 A3012 RMK A01 T01450043  RH  050%=      5-min Rain = 0
KSB1 081459Z 28002KT 15/04 A3013 RMK A01 T01450044  RH  051%=      5-min Rain = 0
KSB1 081500Z 27002KT 14/04 A3013 RMK A01 T01440044  RH  051%=      5-min Rain = 0
KSB1 081501Z 25003KT 14/04 A3013 RMK A01 T01440044  RH  051%=      5-min Rain = 0
KSB1 081502Z 24002KT 14/04 A3013 RMK A01 T01440043  RH  050%=      5-min Rain = 0
KSB1 081503Z 23002KT 15/04 A3012 RMK A01 T01450044  RH  051%=      5-min Rain = 0
KSB1 081504Z 24003KT 15/04 A3012 RMK A01 T01460044  RH  050%=      5-min Rain = 0
KSB1 081505Z 24002KT 15/04 A3012 RMK A01 T01460044  RH  050%=      5-min Rain = 0
KSB1 081506Z 22002KT 15/05 A3012 RMK A01 T01470045  RH  050%=      5-min Rain = 0
KSB1 081507Z 24003KT 15/05 A3012 RMK A01 T01480045  RH  050%=      5-min Rain = 0
KSB1 081508Z 28003KT 15/05 A3013 RMK A01 T01480045  RH  050%=      5-min Rain = 0
KSB1 081509Z 29003KT 15/05 A3013 RMK A01 T01490045  RH  050%=      5-min Rain = 0
KSB1 081510Z 27004KT 15/05 A3013 RMK A01 T01500046  RH  050%=      5-min Rain = 0
KSB1 081511Z 28003KT 15/05 A3013 RMK A01 T01500045  RH  049%=      5-min Rain = 0
KSB1 081512Z 29004KT 15/05 A3013 RMK A01 T01500045  RH  049%=      5-min Rain = 0
KSB1 081513Z 26003KT 15/05 A3013 RMK A01 T01500045  RH  049%=      5-min Rain = 0
KSB1 081514Z 24003KT 15/05 A3013 RMK A01 T01510046  RH  049%=      5-min Rain = 0
KSB1 081515Z 23004KT 15/05 A3013 RMK A01 T01510045  RH  049%=      5-min Rain = 0
KSB1 081516Z 23003KT 15/05 A3013 RMK A01 T01520047  RH  050%=      5-min Rain = 0
KSB1 081517Z 24008KT 15/05 A3013 RMK A01 T01510047  RH  050%=      5-min Rain = 0
KSB1 081518Z 27006KT 15/05 A3013 RMK A01 T01540047  RH  049%=      5-min Rain = 0
KSB1 081519Z 26006KT 16/05 A3013 RMK A01 T01580048  RH  048%=      5-min Rain = 0
KSB1 081520Z 24006KT 16/05 A3013 RMK A01 T01600047  RH  047%=      5-min Rain = 0
KSB1 081521Z 24006KT 16/05 A3013 RMK A01 T01590046  RH  047%=      5-min Rain = 0
KSB1 081522Z 23007KT 16/05 A3013 RMK A01 T01590047  RH  047%=      5-min Rain = 0
KSB1 081523Z 23010KT 16/05 A3013 RMK A01 T01590047  RH  047%=      5-min Rain = 0
KSB1 081524Z 27011KT 16/05 A3013 RMK A01 T01610048  RH  047%=      5-min Rain = 0
KSB1 081525Z 29006KT 16/05 A3013 RMK A01 T01640048  RH  046%=      5-min Rain = 0
KSB1 081526Z 28006KT 17/05 A3013 RMK A01 T01650048  RH  046%=      5-min Rain = 0
KSB1 081527Z 25006KT 17/05 A3013 RMK A01 T01660048  RH  046%=      5-min Rain = 0
KSB1 081528Z 24005KT 17/05 A3013 RMK A01 T01660047  RH  045%=      5-min Rain = 0
KSB1 081529Z 23006KT 17/05 A3013 RMK A01 T01660048  RH  045%=      5-min Rain = 0
KSB1 081530Z 22007KT 17/05 A3013 RMK A01 T01670049  RH  046%=      5-min Rain = 0
KSB1 081531Z 24009KT 17/05 A3013 RMK A01 T01680049  RH  045%=      5-min Rain = 0
KSB1 081532Z 22007KT 17/05 A3013 RMK A01 T01690048  RH  045%=      5-min Rain = 0
KSB1 081533Z 26007KT 17/05 A3013 RMK A01 T01690049  RH  045%=      5-min Rain = 0
KSB1 081534Z 25007KT 17/05 A3013 RMK A01 T01690049  RH  045%=      5-min Rain = 0
KSB1 081535Z 29006KT 17/05 A3013 RMK A01 T01700051  RH  045%=      5-min Rain = 0
KSB1 081536Z 27006KT 17/05 A3013 RMK A01 T01720052  RH  045%=      5-min Rain = 0
KSB1 081537Z 26005KT 17/05 A3013 RMK A01 T01720050  RH  044%=      5-min Rain = 0
KSB1 081538Z 27007KT 17/05 A3013 RMK A01 T01730051  RH  044%=      5-min Rain = 0
KSB1 081539Z 27009KT 17/05 A3013 RMK A01 T01730050  RH  044%=      5-min Rain = 0
KSB1 081540Z 27008KT 17/05 A3013 RMK A01 T01730051  RH  044%=      5-min Rain = 0
KSB1 081541Z 28004KT 17/05 A3013 RMK A01 T01740050  RH  044%=      5-min Rain = 0
KSB1 081542Z 25005KT 17/05 A3013 RMK A01 T01740051  RH  044%=      5-min Rain = 0
KSB1 081543Z 24006KT 18/05 A3013 RMK A01 T01750052  RH  044%=      5-min Rain = 0
KSB1 081544Z 24006KT 18/05 A3013 RMK A01 T01760051  RH  044%=      5-min Rain = 0
KSB1 081545Z 24007KT 18/05 A3013 RMK A01 T01760050  RH  043%=      5-min Rain = 0
KSB1 081546Z 25008KT 18/05 A3013 RMK A01 T01760050  RH  043%=      5-min Rain = 0
KSB1 081547Z 26006KT 18/05 A3013 RMK A01 T01750050  RH  044%=      5-min Rain = 0
KSB1 081548Z 26004KT 18/05 A3013 RMK A01 T01750050  RH  044%=      5-min Rain = 0
KSB1 081549Z 26005KT 18/05 A3013 RMK A01 T01750051  RH  044%=      5-min Rain = 0
KSB1 081550Z 27008KT 18/05 A3014 RMK A01 T01760052  RH  044%=      5-min Rain = 0
KSB1 081551Z 26006KT 18/05 A3014 RMK A01 T01770052  RH  044%=      5-min Rain = 0
KSB1 081552Z 26007KT 18/05 A3014 RMK A01 T01770052  RH  044%=      5-min Rain = 0
KSB1 081553Z 26006KT 18/05 A3013 RMK A01 T01790053  RH  044%=      5-min Rain = 0
KSB1 081554Z 25008KT 18/05 A3013 RMK A01 T01790051  RH  043%=      5-min Rain = 0
KSB1 081555Z 23006KT 18/05 A3013 RMK A01 T01780051  RH  043%=      5-min Rain = 0
KSB1 081556Z 23007KT 18/05 A3013 RMK A01 T01780050  RH  043%=      5-min Rain = 0
KSB1 081557Z 24006KT 18/05 A3013 RMK A01 T01760049  RH  043%=      5-min Rain = 0
KSB1 081558Z 24005KT 18/05 A3013 RMK A01 T01760050  RH  043%=      5-min Rain = 0
KSB1 081559Z 25005KT 18/05 A3014 RMK A01 T01770050  RH  043%=      5-min Rain = 0
KSB1 081600Z 22007KT 18/05 A3014 RMK A01 T01780050  RH  043%=      5-min Rain = 0
KSB1 081601Z 21007KT 18/05 A3014 RMK A01 T01780049  RH  043%=      5-min Rain = 0
KSB1 081602Z 21006KT 18/05 A3014 RMK A01 T01770049  RH  043%=      5-min Rain = 0
KSB1 081603Z 22006KT 18/05 A3014 RMK A01 T01770049  RH  043%=      5-min Rain = 0
KSB1 081604Z 25004KT 18/05 A3014 RMK A01 T01770049  RH  043%=      5-min Rain = 0
KSB1 081605Z 23008KT 18/05 A3014 RMK A01 T01780049  RH  043%=      5-min Rain = 0
KSB1 081606Z 23007KT 18/05 A3014 RMK A01 T01780048  RH  042%=      5-min Rain = 0
KSB1 081607Z 22007KT 18/05 A3014 RMK A01 T01770048  RH  042%=      5-min Rain = 0
KSB1 081608Z 22004KT 18/05 A3014 RMK A01 T01760047  RH  042%=      5-min Rain = 0
KSB1 081609Z 21006KT 18/05 A3014 RMK A01 T01760048  RH  043%=      5-min Rain = 0
KSB1 081610Z 22004KT 18/05 A3014 RMK A01 T01770048  RH  042%=      5-min Rain = 0
KSB1 081611Z 25003KT 18/05 A3014 RMK A01 T01770048  RH  042%=      5-min Rain = 0
KSB1 081612Z 25005KT 18/05 A3014 RMK A01 T01770047  RH  042%=      5-min Rain = 0
KSB1 081613Z 27004KT 18/05 A3014 RMK A01 T01770048  RH  042%=      5-min Rain = 0
KSB1 081614Z 25004KT 18/05 A3014 RMK A01 T01780048  RH  042%=      5-min Rain = 0
KSB1 081615Z 24002KT 18/05 A3014 RMK A01 T01780049  RH  043%=      5-min Rain = 0
KSB1 081616Z 21006KT 18/05 A3014 RMK A01 T01790049  RH  042%=      5-min Rain = 0
KSB1 081617Z 22005KT 18/05 A3014 RMK A01 T01790048  RH  042%=      5-min Rain = 0
KSB1 081618Z 22004KT 18/05 A3014 RMK A01 T01790048  RH  042%=      5-min Rain = 0
KSB1 081619Z 23004KT 18/05 A3014 RMK A01 T01790048  RH  042%=      5-min Rain = 0
KSB1 081620Z 31004KT 18/05 A3014 RMK A01 T01790047  RH  042%=      5-min Rain = 0
KSB1 081621Z 33005KT 18/05 A3014 RMK A01 T01790050  RH  042%=      5-min Rain = 0
KSB1 081622Z 31005KT 18/05 A3014 RMK A01 T01790051  RH  043%=      5-min Rain = 0
KSB1 081623Z 26007KT 18/05 A3014 RMK A01 T01800051  RH  043%=      5-min Rain = 0
KSB1 081624Z 22008KT 18/05 A3014 RMK A01 T01810049  RH  042%=      5-min Rain = 0
KSB1 081625Z 24006KT 18/05 A3014 RMK A01 T01800049  RH  042%=      5-min Rain = 0
KSB1 081626Z 28005KT 18/05 A3014 RMK A01 T01790049  RH  042%=      5-min Rain = 0
KSB1 081627Z 21004KT 18/05 A3014 RMK A01 T01790049  RH  042%=      5-min Rain = 0
KSB1 081628Z 26006KT 18/05 A3014 RMK A01 T01790049  RH  042%=      5-min Rain = 0
KSB1 081629Z 25004G9KT 18/05 A3014 RMK A01 T01800050  RH  042%=      5-min Rain = 0
KSB1 081630Z 27007KT 18/05 A3014 RMK A01 T01790050  RH  042%=      5-min Rain = 0
KSB1 081631Z 25007KT 18/05 A3014 RMK A01 T01790050  RH  043%=      5-min Rain = 0
KSB1 081632Z 29009G14KT 18/05 A3014 RMK A01 T01800050  RH  042%=      5-min Rain = 0
KSB1 081633Z 26006KT 18/05 A3014 RMK A01 T01810049  RH  042%=      5-min Rain = 0
KSB1 081634Z 28007KT 18/05 A3014 RMK A01 T01800049  RH  042%=      5-min Rain = 0
KSB1 081635Z 28008KT 18/05 A3014 RMK A01 T01800051  RH  043%=      5-min Rain = 0
KSB1 081636Z 27007KT 18/05 A3014 RMK A01 T01810050  RH  042%=      5-min Rain = 0
KSB1 081637Z 25006KT 18/05 A3014 RMK A01 T01810049  RH  042%=      5-min Rain = 0
KSB1 081638Z 27004KT 18/05 A3014 RMK A01 T01810050  RH  042%=      5-min Rain = 0
KSB1 081639Z 28005KT 18/05 A3014 RMK A01 T01820052  RH  042%=      5-min Rain = 0
KSB1 081640Z 27007KT 18/05 A3014 RMK A01 T01830051  RH  042%=      5-min Rain = 0
KSB1 081641Z 26007KT 18/05 A3014 RMK A01 T01830051  RH  042%=      5-min Rain = 0
KSB1 081642Z 28007KT 18/05 A3014 RMK A01 T01830053  RH  042%=      5-min Rain = 0
KSB1 081643Z 28010KT 18/05 A3014 RMK A01 T01840051  RH  042%=      5-min Rain = 0
KSB1 081644Z 27009KT 18/05 A3014 RMK A01 T01840051  RH  042%=      5-min Rain = 0
KSB1 081645Z 27010KT 18/05 A3014 RMK A01 T01840052  RH  042%=      5-min Rain = 0
KSB1 081646Z 26008KT 19/05 A3014 RMK A01 T01850051  RH  041%=      5-min Rain = 0
KSB1 081647Z 27007KT 18/05 A3014 RMK A01 T01840050  RH  041%=      5-min Rain = 0
KSB1 081648Z 27009KT 18/05 A3014 RMK A01 T01840051  RH  042%=      5-min Rain = 0
KSB1 081649Z 28007KT 19/05 A3014 RMK A01 T01850052  RH  042%=      5-min Rain = 0
KSB1 081650Z 27006KT 19/05 A3014 RMK A01 T01850051  RH  041%=      5-min Rain = 0
KSB1 081651Z 27008KT 19/05 A3014 RMK A01 T01860052  RH  041%=      5-min Rain = 0
KSB1 081652Z 28009KT 19/05 A3014 RMK A01 T01870052  RH  041%=      5-min Rain = 0
KSB1 081653Z 28011KT 19/05 A3014 RMK A01 T01860051  RH  041%=      5-min Rain = 0
KSB1 081654Z 28010KT 19/05 A3014 RMK A01 T01850052  RH  041%=      5-min Rain = 0
KSB1 081655Z 29011KT 19/05 A3014 RMK A01 T01850051  RH  041%=      5-min Rain = 0
KSB1 081656Z 29011KT 19/05 A3014 RMK A01 T01860052  RH  041%=      5-min Rain = 0
KSB1 081657Z 28011KT 19/05 A3014 RMK A01 T01860051  RH  041%=      5-min Rain = 0
KSB1 081658Z 28010KT 19/05 A3014 RMK A01 T01850051  RH  041%=      5-min Rain = 0
KSB1 081659Z 28013KT 19/05 A3013 RMK A01 T01850051  RH  041%=      5-min Rain = 0
KSB1 081700Z 28012KT 19/05 A3013 RMK A01 T01850051  RH  041%=      5-min Rain = 0
KSB1 081701Z 28011KT 19/05 A3013 RMK A01 T01850051  RH  041%=      5-min Rain = 0
KSB1 081702Z 29011KT 19/05 A3013 RMK A01 T01850050  RH  041%=      5-min Rain = 0
KSB1 081703Z 28010KT 19/05 A3013 RMK A01 T01850051  RH  041%=      5-min Rain = 0
KSB1 081704Z 28011KT 19/05 A3013 RMK A01 T01860050  RH  041%=      5-min Rain = 0
KSB1 081705Z 28009KT 19/05 A3013 RMK A01 T01860050  RH  041%=      5-min Rain = 0
KSB1 081706Z 28009KT 19/05 A3013 RMK A01 T01870052  RH  041%=      5-min Rain = 0
KSB1 081707Z 28009KT 19/05 A3013 RMK A01 T01900054  RH  041%=      5-min Rain = 0
KSB1 081708Z 28010KT 19/05 A3013 RMK A01 T01920051  RH  040%=      5-min Rain = 0
KSB1 081709Z 28010KT 19/05 A3013 RMK A01 T01900050  RH  040%=      5-min Rain = 0
KSB1 081710Z 28007KT 19/05 A3013 RMK A01 T01890051  RH  040%=      5-min Rain = 0
KSB1 081711Z 28007KT 19/05 A3013 RMK A01 T01890052  RH  041%=      5-min Rain = 0
KSB1 081712Z 27008KT 19/05 A3013 RMK A01 T01890052  RH  040%=      5-min Rain = 0
KSB1 081713Z 27007KT 19/05 A3013 RMK A01 T01900052  RH  040%=      5-min Rain = 0
KSB1 081714Z 29008KT 19/05 A3013 RMK A01 T01900052  RH  040%=      5-min Rain = 0
KSB1 081715Z 29008KT 19/05 A3013 RMK A01 T01910051  RH  040%=      5-min Rain = 0
KSB1 081716Z 27009KT 19/05 A3013 RMK A01 T01900050  RH  040%=      5-min Rain = 0
KSB1 081717Z 28007KT 19/05 A3013 RMK A01 T01890050  RH  040%=      5-min Rain = 0
KSB1 081718Z 29009KT 19/05 A3013 RMK A01 T01890050  RH  040%=      5-min Rain = 0
KSB1 081719Z 28010KT 19/05 A3013 RMK A01 T01890050  RH  040%=      5-min Rain = 0
KSB1 081720Z 29011KT 19/05 A3013 RMK A01 T01900048  RH  039%=      5-min Rain = 0
KSB1 081721Z 29010KT 19/05 A3013 RMK A01 T01900048  RH  039%=      5-min Rain = 0
KSB1 081722Z 30010KT 19/05 A3013 RMK A01 T01900049  RH  039%=      5-min Rain = 0
KSB1 081723Z 29011G17KT 19/05 A3013 RMK A01 T01900046  RH  039%=      5-min Rain = 0
KSB1 081724Z 29010KT 19/04 A3013 RMK A01 T01870044  RH  039%=      5-min Rain = 0
KSB1 081725Z 28011KT 19/05 A3013 RMK A01 T01870048  RH  040%=      5-min Rain = 0
KSB1 081726Z 28010KT 19/05 A3013 RMK A01 T01890048  RH  040%=      5-min Rain = 0
KSB1 081727Z 29010KT 19/05 A3013 RMK A01 T01890047  RH  039%=      5-min Rain = 0
KSB1 081728Z 29009KT 19/05 A3013 RMK A01 T01880046  RH  039%=      5-min Rain = 0
KSB1 081729Z 28011KT 19/05 A3012 RMK A01 T01880046  RH  039%=      5-min Rain = 0
KSB1 081730Z 29012KT 19/05 A3012 RMK A01 T01910047  RH  039%=      5-min Rain = 0
KSB1 081731Z 28012KT 19/05 A3012 RMK A01 T01910045  RH  038%=      5-min Rain = 0
KSB1 081732Z 28008KT 19/05 A3012 RMK A01 T01910045  RH  038%=      5-min Rain = 0
KSB1 081733Z 28009KT 19/05 A3012 RMK A01 T01910045  RH  038%=      5-min Rain = 0
KSB1 081734Z 28011KT 19/04 A3012 RMK A01 T01920043  RH  037%=      5-min Rain = 0
KSB1 081735Z 28009KT 19/04 A3012 RMK A01 T01920043  RH  037%=      5-min Rain = 0
KSB1 081736Z 28008KT 19/04 A3012 RMK A01 T01920043  RH  037%=      5-min Rain = 0
KSB1 081737Z 29012KT 19/04 A3012 RMK A01 T01940044  RH  037%=      5-min Rain = 0
KSB1 081738Z 27012KT 19/04 A3012 RMK A01 T01940042  RH  037%=      5-min Rain = 0
KSB1 081739Z 27011KT 19/04 A3012 RMK A01 T01920041  RH  037%=      5-min Rain = 0
KSB1 081740Z 26010KT 19/04 A3012 RMK A01 T01910041  RH  037%=      5-min Rain = 0
KSB1 081741Z 28008KT 19/04 A3012 RMK A01 T01900042  RH  037%=      5-min Rain = 0
KSB1 081742Z 28012KT 19/04 A3012 RMK A01 T01920043  RH  037%=      5-min Rain = 0
KSB1 081743Z 26012KT 19/04 A3012 RMK A01 T01940043  RH  037%=      5-min Rain = 0
KSB1 081744Z 26010KT 19/04 A3012 RMK A01 T01940041  RH  036%=      5-min Rain = 0
KSB1 081745Z 27010KT 19/04 A3012 RMK A01 T01940042  RH  037%=      5-min Rain = 0
KSB1 081746Z 26014KT 20/04 A3012 RMK A01 T01950043  RH  037%=      5-min Rain = 0
KSB1 081747Z 28014KT 20/04 A3012 RMK A01 T01950044  RH  037%=      5-min Rain = 0
KSB1 081748Z 29012KT 19/04 A3011 RMK A01 T01940044  RH  037%=      5-min Rain = 0
KSB1 081749Z 29013KT 19/04 A3011 RMK A01 T01930044  RH  037%=      5-min Rain = 0
KSB1 081750Z 29010KT 19/04 A3011 RMK A01 T01920042  RH  037%=      5-min Rain = 0
KSB1 081751Z 29008KT 19/04 A3011 RMK A01 T01910043  RH  038%=      5-min Rain = 0
KSB1 081752Z 27010KT 19/04 A3011 RMK A01 T01910044  RH  038%=      5-min Rain = 0
KSB1 081753Z 28011KT 19/04 A3011 RMK A01 T01920044  RH  038%=      5-min Rain = 0
KSB1 081754Z 27009KT 19/05 A3011 RMK A01 T01930045  RH  038%=      5-min Rain = 0
KSB1 081755Z 27007KT 20/04 A3011 RMK A01 T01950044  RH  037%=      5-min Rain = 0
KSB1 081756Z 25008KT 20/05 A3011 RMK A01 T01950045  RH  037%=      5-min Rain = 0
KSB1 081757Z 26007KT 20/05 A3011 RMK A01 T01980047  RH  037%=      5-min Rain = 0
KSB1 081758Z 26007KT 20/05 A3011 RMK A01 T01990046  RH  036%=      5-min Rain = 0
KSB1 081759Z 25005KT 20/05 A3011 RMK A01 T01990045  RH  036%=      5-min Rain = 0
KSB1 081800Z 27008KT 20/05 A3011 RMK A01 T01980045  RH  036%=      5-min Rain = 0
KSB1 081801Z 25009KT 20/05 A3011 RMK A01 T01990046  RH  037%=      5-min Rain = 0
KSB1 081802Z 25006KT 20/05 A301 RMK A01 T01990046  RH  036%=      5-min Rain = 0
KSB1 081803Z 23010KT 20/05 A301 RMK A01 T02000047  RH  037%=      5-min Rain = 0
KSB1 081804Z 25009KT 20/05 A301 RMK A01 T02010048  RH  037%=      5-min Rain = 0
KSB1 081805Z 25007KT 20/05 A301 RMK A01 T02020046  RH  036%=      5-min Rain = 0
KSB1 081806Z 27007KT 20/05 A301 RMK A01 T02000046  RH  036%=      5-min Rain = 0
KSB1 081807Z 23008KT 20/05 A301 RMK A01 T02000049  RH  037%=      5-min Rain = 0
KSB1 081808Z 23007KT 20/05 A301 RMK A01 T02010048  RH  037%=      5-min Rain = 0
KSB1 081809Z 23008KT 20/05 A301 RMK A01 T01970047  RH  037%=      5-min Rain = 0
KSB1 081810Z 24010KT 20/05 A301 RMK A01 T01990049  RH  037%=      5-min Rain = 0
KSB1 081811Z 21007KT 20/05 A301 RMK A01 T02000050  RH  037%=      5-min Rain = 0
KSB1 081812Z 20010KT 20/05 A3009 RMK A01 T02010050  RH  037%=      5-min Rain = 0
KSB1 081813Z 22011KT 20/05 A3009 RMK A01 T01990048  RH  037%=      5-min Rain = 0
KSB1 081814Z 20009KT 20/05 A3009 RMK A01 T01970049  RH  038%=      5-min Rain = 0
KSB1 081815Z 20011KT 20/05 A3009 RMK A01 T01980049  RH  037%=      5-min Rain = 0
KSB1 081816Z 22010KT 20/05 A3009 RMK A01 T01970047  RH  037%=      5-min Rain = 0
KSB1 081817Z 24007KT 20/05 A301 RMK A01 T01960048  RH  038%=      5-min Rain = 0
KSB1 081818Z 22006KT 20/05 A301 RMK A01 T01950048  RH  038%=      5-min Rain = 0
KSB1 081819Z 20009KT 20/05 A3009 RMK A01 T01950048  RH  038%=      5-min Rain = 0
KSB1 081820Z 21009KT 20/05 A3009 RMK A01 T01960050  RH  038%=      5-min Rain = 0
KSB1 081821Z 21010KT 20/05 A3009 RMK A01 T01990051  RH  038%=      5-min Rain = 0
KSB1 081822Z 22013KT 20/05 A3009 RMK A01 T02010051  RH  037%=      5-min Rain = 0
KSB1 081823Z 23014KT 20/05 A3009 RMK A01 T01990048  RH  037%=      5-min Rain = 0
KSB1 081824Z 22012KT 20/05 A3009 RMK A01 T01960048  RH  038%=      5-min Rain = 0
KSB1 081825Z 22011KT 20/05 A301 RMK A01 T01950049  RH  038%=      5-min Rain = 0
KSB1 081826Z 23009KT 20/05 A301 RMK A01 T01950049  RH  038%=      5-min Rain = 0
KSB1 081827Z 23009KT 20/05 A301 RMK A01 T01960049  RH  038%=      5-min Rain = 0
KSB1 081828Z 22010KT 20/05 A301 RMK A01 T01960050  RH  038%=      5-min Rain = 0
KSB1 081829Z 21007KT 20/05 A301 RMK A01 T01970049  RH  038%=      5-min Rain = 0
KSB1 081830Z 21005KT 19/05 A301 RMK A01 T01940047  RH  038%=      5-min Rain = 0
KSB1 081831Z 24006KT 20/05 A301 RMK A01 T01950050  RH  039%=      5-min Rain = 0
KSB1 081832Z 26006KT 20/05 A301 RMK A01 T01970050  RH  038%=      5-min Rain = 0
KSB1 081833Z 27009G15KT 20/05 A301 RMK A01 T01980051  RH  038%=      5-min Rain = 0
KSB1 081834Z 27012KT 20/05 A3009 RMK A01 T02000053  RH  038%=      5-min Rain = 0
KSB1 081835Z 27013KT 20/05 A3009 RMK A01 T02010052  RH  038%=      5-min Rain = 0
KSB1 081836Z 26011KT 20/05 A3009 RMK A01 T02010053  RH  038%=      5-min Rain = 0
KSB1 081837Z 24009KT 20/05 A3009 RMK A01 T02030053  RH  037%=      5-min Rain = 0
KSB1 081838Z 26009KT 21/05 A3009 RMK A01 T02050054  RH  037%=      5-min Rain = 0
KSB1 081839Z 26011KT 21/05 A3009 RMK A01 T02060054  RH  037%=      5-min Rain = 0
KSB1 081840Z 27011KT 21/05 A3009 RMK A01 T02070053  RH  037%=      5-min Rain = 0
KSB1 081841Z 29015KT 21/05 A3009 RMK A01 T02070052  RH  036%=      5-min Rain = 0
KSB1 081842Z 28014KT 21/05 A3009 RMK A01 T02050051  RH  036%=      5-min Rain = 0
KSB1 081843Z 27014KT 20/05 A3009 RMK A01 T02030051  RH  037%=      5-min Rain = 0
KSB1 081844Z 25010KT 20/05 A3009 RMK A01 T02010050  RH  037%=      5-min Rain = 0
KSB1 081845Z 27011KT 20/05 A3009 RMK A01 T02010052  RH  038%=      5-min Rain = 0
KSB1 081846Z 29015G20KT 20/05 A3009 RMK A01 T02030053  RH  037%=      5-min Rain = 0
KSB1 081847Z 28013KT 20/05 A3009 RMK A01 T02030051  RH  037%=      5-min Rain = 0
KSB1 081848Z 29016KT 20/05 A3009 RMK A01 T02010052  RH  038%=      5-min Rain = 0
KSB1 081849Z 28015G21KT 20/05 A3009 RMK A01 T02010052  RH  038%=      5-min Rain = 0
KSB1 081850Z 28011KT 20/05 A3009 RMK A01 T02010053  RH  038%=      5-min Rain = 0
KSB1 081851Z 29016G22KT 20/05 A3009 RMK A01 T02020053  RH  038%=      5-min Rain = 0
KSB1 081852Z 28014KT 20/05 A3009 RMK A01 T02020052  RH  037%=      5-min Rain = 0
KSB1 081853Z 28015G20KT 20/05 A3009 RMK A01 T02020053  RH  038%=      5-min Rain = 0
KSB1 081854Z 28015G20KT 20/05 A3009 RMK A01 T02030052  RH  037%=      5-min Rain = 0
KSB1 081855Z 27014KT 20/05 A3009 RMK A01 T02020052  RH  038%=      5-min Rain = 0
KSB1 081856Z 26012KT 20/05 A3009 RMK A01 T02010053  RH  038%=      5-min Rain = 0
KSB1 081857Z 27012KT 20/05 A3008 RMK A01 T02020053  RH  037%=      5-min Rain = 0
KSB1 081858Z 27011KT 20/05 A3008 RMK A01 T02020051  RH  037%=      5-min Rain = 0
KSB1 081859Z 27008KT 20/05 A3008 RMK A01 T02000052  RH  038%=      5-min Rain = 0
KSB1 081900Z 28009KT 20/05 A3008 RMK A01 T02010054  RH  038%=      5-min Rain = 0
KSB1 081901Z 28013KT 20/05 A3008 RMK A01 T02030054  RH  038%=      5-min Rain = 0
KSB1 081902Z 27012KT 20/05 A3008 RMK A01 T02030054  RH  038%=      5-min Rain = 0
KSB1 081903Z 27012KT 20/05 A3008 RMK A01 T02020053  RH  038%=      5-min Rain = 0
KSB1 081904Z 29012KT 20/05 A3008 RMK A01 T02010053  RH  038%=      5-min Rain = 0
KSB1 081905Z 27009KT 20/05 A3008 RMK A01 T01990053  RH  038%=      5-min Rain = 0
KSB1 081906Z 26010KT 20/05 A3008 RMK A01 T02000054  RH  038%=      5-min Rain = 0
KSB1 081907Z 27011KT 20/05 A3008 RMK A01 T02010054  RH  038%=      5-min Rain = 0
KSB1 081908Z 28010KT 20/05 A3008 RMK A01 T02010054  RH  038%=      5-min Rain = 0
KSB1 081909Z 27013G18KT 20/05 A3008 RMK A01 T02020053  RH  038%=      5-min Rain = 0
KSB1 081910Z 30010KT 20/05 A3008 RMK A01 T02010052  RH  038%=      5-min Rain = 0
KSB1 081911Z 27014KT 20/05 A3007 RMK A01 T01990052  RH  038%=      5-min Rain = 0
KSB1 081912Z 27012KT 20/05 A3007 RMK A01 T01980053  RH  039%=      5-min Rain = 0
KSB1 081913Z 28015KT 20/05 A3007 RMK A01 T01990054  RH  039%=      5-min Rain = 0
KSB1 081914Z 28012KT 20/06 A3007 RMK A01 T02010055  RH  038%=      5-min Rain = 0
KSB1 081915Z 27014KT 20/06 A3007 RMK A01 T02030055  RH  038%=      5-min Rain = 0
KSB1 081916Z 27015KT 20/05 A3007 RMK A01 T02030054  RH  038%=      5-min Rain = 0
KSB1 081917Z 29011KT 20/06 A3007 RMK A01 T02030055  RH  038%=      5-min Rain = 0
KSB1 081918Z 27011KT 20/06 A3007 RMK A01 T02020055  RH  038%=      5-min Rain = 0
KSB1 081919Z 27015G22KT 20/05 A3007 RMK A01 T02020054  RH  038%=      5-min Rain = 0
KSB1 081920Z 27016KT 20/05 A3007 RMK A01 T02020054  RH  038%=      5-min Rain = 0
KSB1 081921Z 28014G19KT 20/06 A3007 RMK A01 T02030055  RH  038%=      5-min Rain = 0
KSB1 081922Z 27015G20KT 20/06 A3007 RMK A01 T02030056  RH  038%=      5-min Rain = 0
KSB1 081923Z 26012G17KT 20/05 A3006 RMK A01 T02030054  RH  038%=      5-min Rain = 0
KSB1 081924Z 26015KT 20/05 A3006 RMK A01 T02020054  RH  038%=      5-min Rain = 0
KSB1 081925Z 29011KT 20/05 A3006 RMK A01 T02000054  RH  038%=      5-min Rain = 0
KSB1 081926Z 27013KT 20/05 A3006 RMK A01 T02000054  RH  038%=      5-min Rain = 0
KSB1 081927Z 28013KT 20/05 A3006 RMK A01 T01990054  RH  039%=      5-min Rain = 0
KSB1 081928Z 27014KT 20/06 A3006 RMK A01 T02000055  RH  039%=      5-min Rain = 0
KSB1 081929Z 27014KT 20/05 A3006 RMK A01 T02000054  RH  038%=      5-min Rain = 0
KSB1 081930Z 29016KT 20/06 A3006 RMK A01 T02000055  RH  038%=      5-min Rain = 0
KSB1 081931Z 29013G18KT 20/06 A3006 RMK A01 T02010055  RH  038%=      5-min Rain = 0
KSB1 081932Z 29013KT 20/05 A3006 RMK A01 T02000054  RH  038%=      5-min Rain = 0
KSB1 081933Z 27009KT 20/05 A3006 RMK A01 T01990054  RH  039%=      5-min Rain = 0
KSB1 081934Z 26011KT 20/06 A3006 RMK A01 T02010056  RH  039%=      5-min Rain = 0
KSB1 081935Z 26006KT 20/06 A3006 RMK A01 T02030057  RH  038%=      5-min Rain = 0
KSB1 081936Z 27013G19KT 21/06 A3005 RMK A01 T02050057  RH  038%=      5-min Rain = 0
KSB1 081937Z 27011G16KT 20/06 A3006 RMK A01 T02040056  RH  038%=      5-min Rain = 0
KSB1 081938Z 27014KT 20/06 A3006 RMK A01 T02030056  RH  038%=      5-min Rain = 0
KSB1 081939Z 26014KT 20/06 A3005 RMK A01 T02030056  RH  038%=      5-min Rain = 0
KSB1 081940Z 27013KT 20/06 A3005 RMK A01 T02030057  RH  038%=      5-min Rain = 0
KSB1 081941Z 28014KT 20/06 A3005 RMK A01 T02040059  RH  039%=      5-min Rain = 0
KSB1 081942Z 29013G21KT 20/06 A3005 RMK A01 T02040060  RH  039%=      5-min Rain = 0
KSB1 081943Z 25013G19KT 21/06 A3005 RMK A01 T02050058  RH  038%=      5-min Rain = 0
KSB1 081944Z 27013G20KT 20/06 A3005 RMK A01 T02040059  RH  039%=      5-min Rain = 0
KSB1 081945Z 27013KT 20/06 A3005 RMK A01 T02040057  RH  038%=      5-min Rain = 0
KSB1 081946Z 26013G18KT 20/06 A3005 RMK A01 T02030060  RH  039%=      5-min Rain = 0
KSB1 081947Z 24016KT 20/06 A3005 RMK A01 T02040059  RH  039%=      5-min Rain = 0
KSB1 081948Z 25015KT 20/06 A3005 RMK A01 T02030058  RH  039%=      5-min Rain = 0
KSB1 081949Z 27010KT 20/06 A3005 RMK A01 T02030059  RH  039%=      5-min Rain = 0
KSB1 081950Z 26009KT 20/06 A3005 RMK A01 T02040059  RH  039%=      5-min Rain = 0
KSB1 081951Z 28008KT 20/06 A3005 RMK A01 T02040057  RH  038%=      5-min Rain = 0
KSB1 081952Z 29010G17KT 20/06 A3005 RMK A01 T02030058  RH  039%=      5-min Rain = 0
KSB1 081953Z 29015KT 20/06 A3005 RMK A01 T02040058  RH  039%=      5-min Rain = 0
KSB1 081954Z 28011G19KT 20/06 A3004 RMK A01 T02040059  RH  039%=      5-min Rain = 0
KSB1 081955Z 26008KT 20/06 A3004 RMK A01 T02020060  RH  039%=      5-min Rain = 0
KSB1 081956Z 27014G19KT 20/06 A3004 RMK A01 T02040061  RH  039%=      5-min Rain = 0
KSB1 081957Z 28011G18KT 21/06 A3004 RMK A01 T02050059  RH  039%=      5-min Rain = 0
KSB1 081958Z 27016KT 21/06 A3004 RMK A01 T02050060  RH  039%=      5-min Rain = 0
KSB1 081959Z 27015KT 21/06 A3004 RMK A01 T02060060  RH  039%=      5-min Rain = 0
KSB1 082000Z 27012KT 21/06 A3005 RMK A01 T02050059  RH  039%=      5-min Rain = 0
KSB1 082001Z 26012KT 21/06 A3005 RMK A01 T02050060  RH  039%=      5-min Rain = 0
KSB1 082002Z 26010KT 20/06 A3004 RMK A01 T02040059  RH  039%=      5-min Rain = 0
KSB1 082003Z 29011KT 20/06 A3004 RMK A01 T02030059  RH  039%=      5-min Rain = 0
KSB1 082004Z 29011KT 20/06 A3005 RMK A01 T02030060  RH  039%=      5-min Rain = 0
KSB1 082005Z 30013G19KT 20/06 A3004 RMK A01 T02030059  RH  039%=      5-min Rain = 0
KSB1 082006Z 29018G24KT 20/06 A3005 RMK A01 T02030059  RH  039%=      5-min Rain = 0
KSB1 082007Z 29017KT 20/06 A3005 RMK A01 T02000058  RH  040%=      5-min Rain = 0
KSB1 082008Z 29014G20KT 20/06 A3005 RMK A01 T01990060  RH  040%=      5-min Rain = 0
KSB1 082009Z 28015KT 20/06 A3005 RMK A01 T01990061  RH  040%=      5-min Rain = 0
KSB1 082010Z 28014KT 20/06 A3005 RMK A01 T01990060  RH  040%=      5-min Rain = 0
KSB1 082011Z 27015KT 20/06 A3005 RMK A01 T01980060  RH  040%=      5-min Rain = 0
KSB1 082012Z 28014KT 20/06 A3005 RMK A01 T01970059  RH  040%=      5-min Rain = 0
KSB1 082013Z 28014G19KT 20/06 A3005 RMK A01 T01970059  RH  041%=      5-min Rain = 0
KSB1 082014Z 29009KT 20/06 A3005 RMK A01 T01960060  RH  041%=      5-min Rain = 0
KSB1 082015Z 28009G15KT 20/06 A3005 RMK A01 T01970061  RH  041%=      5-min Rain = 0
KSB1 082016Z 29008KT 20/06 A3005 RMK A01 T01980061  RH  041%=      5-min Rain = 0
KSB1 082017Z 28011KT 20/06 A3005 RMK A01 T01990061  RH  040%=      5-min Rain = 0
KSB1 082018Z 28013KT 20/06 A3004 RMK A01 T01990059  RH  040%=      5-min Rain = 0
KSB1 082019Z 27010KT 20/06 A3004 RMK A01 T01970059  RH  040%=      5-min Rain = 0
KSB1 082020Z 29010KT 20/06 A3004 RMK A01 T01970060  RH  041%=      5-min Rain = 0
KSB1 082021Z 27011KT 20/06 A3005 RMK A01 T01980061  RH  041%=      5-min Rain = 0
KSB1 082022Z 29008KT 20/06 A3004 RMK A01 T02000060  RH  040%=      5-min Rain = 0
KSB1 082023Z 30008KT 20/06 A3004 RMK A01 T01990060  RH  040%=      5-min Rain = 0
KSB1 082024Z 32007KT 20/06 A3004 RMK A01 T01990060  RH  040%=      5-min Rain = 0
KSB1 082025Z 29008KT 20/06 A3004 RMK A01 T01980060  RH  041%=      5-min Rain = 0
KSB1 082026Z 28010G15KT 20/06 A3004 RMK A01 T01990060  RH  040%=      5-min Rain = 0
KSB1 082027Z 27014KT 20/06 A3004 RMK A01 T01990060  RH  040%=      5-min Rain = 0
KSB1 082028Z 27015KT 20/06 A3004 RMK A01 T01990060  RH  040%=      5-min Rain = 0
KSB1 082029Z 30009G18KT 20/06 A3004 RMK A01 T01990060  RH  040%=      5-min Rain = 0
KSB1 082030Z 29009KT 20/06 A3004 RMK A01 T01990061  RH  041%=      5-min Rain = 0
KSB1 082031Z 30013G20KT 20/06 A3004 RMK A01 T02010061  RH  040%=      5-min Rain = 0
KSB1 082032Z 28014KT 20/06 A3004 RMK A01 T02020061  RH  040%=      5-min Rain = 0
KSB1 082033Z 27013KT 20/06 A3004 RMK A01 T02020062  RH  040%=      5-min Rain = 0
KSB1 082034Z 28010KT 20/06 A3004 RMK A01 T02020062  RH  040%=      5-min Rain = 0
KSB1 082035Z 27012KT 20/06 A3004 RMK A01 T02030063  RH  040%=      5-min Rain = 0
KSB1 082036Z 30011KT 20/06 A3004 RMK A01 T02040062  RH  040%=      5-min Rain = 0
KSB1 082037Z 26009KT 20/06 A3003 RMK A01 T02030062  RH  040%=      5-min Rain = 0
KSB1 082038Z 27011KT 20/06 A3003 RMK A01 T02030062  RH  040%=      5-min Rain = 0
KSB1 082039Z 29013KT 20/06 A3003 RMK A01 T02040061  RH  040%=      5-min Rain = 0
KSB1 082040Z 29014KT 20/06 A3004 RMK A01 T02020061  RH  040%=      5-min Rain = 0
KSB1 082041Z 28015KT 20/06 A3004 RMK A01 T02020062  RH  040%=      5-min Rain = 0
KSB1 082042Z 27013KT 20/06 A3004 RMK A01 T02020062  RH  040%=      5-min Rain = 0
KSB1 082043Z 26013KT 20/06 A3003 RMK A01 T02020062  RH  040%=      5-min Rain = 0
KSB1 082044Z 30013KT 20/06 A3004 RMK A01 T02030063  RH  040%=      5-min Rain = 0
KSB1 082045Z 29012G17KT 21/06 A3004 RMK A01 T02050063  RH  040%=      5-min Rain = 0
KSB1 082046Z 30014G21KT 21/06 A3003 RMK A01 T02050063  RH  040%=      5-min Rain = 0
KSB1 082047Z 30014KT 21/06 A3003 RMK A01 T02050063  RH  039%=      5-min Rain = 0
KSB1 082048Z 30012G17KT 21/06 A3003 RMK A01 T02050064  RH  040%=      5-min Rain = 0
KSB1 082049Z 29015G20KT 21/06 A3003 RMK A01 T02060064  RH  039%=      5-min Rain = 0
KSB1 082050Z 28015G20KT 21/06 A3003 RMK A01 T02070063  RH  039%=      5-min Rain = 0
KSB1 082051Z 28016KT 21/06 A3003 RMK A01 T02050063  RH  040%=      5-min Rain = 0
KSB1 082052Z 28014KT 20/06 A3003 RMK A01 T02040062  RH  040%=      5-min Rain = 0
KSB1 082053Z 27016KT 20/06 A3003 RMK A01 T02040063  RH  040%=      5-min Rain = 0
KSB1 082054Z 29016KT 20/06 A3003 RMK A01 T02040063  RH  040%=      5-min Rain = 0
KSB1 082055Z 30013G18KT 21/06 A3003 RMK A01 T02060064  RH  040%=      5-min Rain = 0
KSB1 082056Z 29016KT 21/06 A3003 RMK A01 T02050063  RH  040%=      5-min Rain = 0
KSB1 082057Z 29014KT 20/06 A3003 RMK A01 T02040064  RH  040%=      5-min Rain = 0
KSB1 082058Z 27015KT 21/06 A3003 RMK A01 T02060064  RH  040%=      5-min Rain = 0
KSB1 082059Z 29013G19KT 21/06 A3002 RMK A01 T02060063  RH  039%=      5-min Rain = 0
KSB1 082100Z 30011KT 21/06 A3002 RMK A01 T02050064  RH  040%=      5-min Rain = 0
KSB1 082101Z 27013KT 21/06 A3002 RMK A01 T02050064  RH  040%=      5-min Rain = 0
KSB1 082102Z 27012KT 21/06 A3002 RMK A01 T02060063  RH  039%=      5-min Rain = 0
KSB1 082103Z 27013KT 21/07 A3002 RMK A01 T02060065  RH  040%=      5-min Rain = 0
KSB1 082104Z 28011G16KT 21/06 A3002 RMK A01 T02070064  RH  039%=      5-min Rain = 0
KSB1 082105Z 30011KT 21/07 A3002 RMK A01 T02070065  RH  040%=      5-min Rain = 0
KSB1 082106Z 29013G18KT 21/07 A3002 RMK A01 T02080065  RH  039%=      5-min Rain = 0
KSB1 082107Z 28015G20KT 21/07 A3002 RMK A01 T02080065  RH  039%=      5-min Rain = 0
KSB1 082108Z 29012G18KT 21/07 A3002 RMK A01 T02080065  RH  039%=      5-min Rain = 0
KSB1 082109Z 29012G17KT 21/07 A3002 RMK A01 T02080065  RH  039%=      5-min Rain = 0
KSB1 082110Z 29016KT 21/07 A3002 RMK A01 T02080065  RH  039%=      5-min Rain = 0
KSB1 082111Z 29016G21KT 21/06 A3002 RMK A01 T02070064  RH  039%=      5-min Rain = 0
KSB1 082112Z 28014KT 21/06 A3002 RMK A01 T02060063  RH  040%=      5-min Rain = 0
KSB1 082113Z 29016KT 21/06 A3002 RMK A01 T02050064  RH  040%=      5-min Rain = 0
KSB1 082114Z 29016G21KT 21/06 A3002 RMK A01 T02060064  RH  040%=      5-min Rain = 0
KSB1 082115Z 28016G21KT 21/06 A3002 RMK A01 T02050064  RH  040%=      5-min Rain = 0
KSB1 082116Z 28015KT 20/06 A3002 RMK A01 T02040064  RH  040%=      5-min Rain = 0
KSB1 082117Z 29013KT 20/06 A3002 RMK A01 T02040064  RH  040%=      5-min Rain = 0
KSB1 082118Z 29016G21KT 20/06 A3002 RMK A01 T02040064  RH  040%=      5-min Rain = 0
KSB1 082119Z 28018KT 20/06 A3002 RMK A01 T02030063  RH  040%=      5-min Rain = 0
KSB1 082120Z 29014G19KT 20/06 A3002 RMK A01 T02020063  RH  040%=      5-min Rain = 0
KSB1 082121Z 29016KT 20/06 A3002 RMK A01 T02020063  RH  040%=      5-min Rain = 0
KSB1 082122Z 28014KT 20/06 A3002 RMK A01 T02020063  RH  040%=      5-min Rain = 0
KSB1 082123Z 29012KT 20/06 A3002 RMK A01 T02020064  RH  041%=      5-min Rain = 0
KSB1 082124Z 29013G20KT 20/06 A3002 RMK A01 T02020064  RH  041%=      5-min Rain = 0
KSB1 082125Z 29016KT 20/06 A3002 RMK A01 T02030063  RH  040%=      5-min Rain = 0
KSB1 082126Z 29015G20KT 20/06 A3002 RMK A01 T02030063  RH  040%=      5-min Rain = 0
KSB1 082127Z 29017KT 20/06 A3002 RMK A01 T02020062  RH  040%=      5-min Rain = 0
KSB1 082128Z 29014G21KT 20/06 A3002 RMK A01 T02010063  RH  041%=      5-min Rain = 0
KSB1 082129Z 28016G21KT 20/06 A3002 RMK A01 T02000063  RH  041%=      5-min Rain = 0
KSB1 082130Z 29017KT 20/06 A3002 RMK A01 T02010063  RH  041%=      5-min Rain = 0
KSB1 082131Z 29019KT 20/06 A3002 RMK A01 T02010063  RH  041%=      5-min Rain = 0
KSB1 082132Z 30019KT 20/06 A3002 RMK A01 T02000063  RH  041%=      5-min Rain = 0
KSB1 082133Z 29015G21KT 20/06 A3002 RMK A01 T01990063  RH  041%=      5-min Rain = 0
KSB1 082134Z 29015KT 20/06 A3002 RMK A01 T01980063  RH  041%=      5-min Rain = 0
KSB1 082135Z 29015KT 20/06 A3002 RMK A01 T01980063  RH  041%=      5-min Rain = 0
KSB1 082136Z 30013G19KT 20/06 A3002 RMK A01 T01990063  RH  041%=      5-min Rain = 0
KSB1 082137Z 30010G16KT 20/06 A3002 RMK A01 T01980063  RH  041%=      5-min Rain = 0
KSB1 082138Z 29012G17KT 20/06 A3002 RMK A01 T01990063  RH  041%=      5-min Rain = 0
KSB1 082139Z 28014KT 20/06 A3002 RMK A01 T01990063  RH  041%=      5-min Rain = 0
KSB1 082140Z 29012KT 20/06 A3002 RMK A01 T01990063  RH  041%=      5-min Rain = 0
KSB1 082141Z 29014KT 20/06 A3002 RMK A01 T01990063  RH  041%=      5-min Rain = 0
KSB1 082142Z 29014G20KT 20/06 A3002 RMK A01 T02000064  RH  041%=      5-min Rain = 0
KSB1 082143Z 29016KT 20/06 A3002 RMK A01 T02010062  RH  040%=      5-min Rain = 0
KSB1 082144Z 29014KT 20/06 A3002 RMK A01 T02010063  RH  041%=      5-min Rain = 0
KSB1 082145Z 29016G21KT 20/06 A3002 RMK A01 T02000062  RH  041%=      5-min Rain = 0
KSB1 082146Z 30013KT 20/06 A3002 RMK A01 T01990063  RH  041%=      5-min Rain = 0
KSB1 082147Z 30014KT 20/06 A3002 RMK A01 T01990063  RH  041%=      5-min Rain = 0
KSB1 082148Z 28013KT 20/06 A3002 RMK A01 T01990063  RH  041%=      5-min Rain = 0
KSB1 082149Z 29015KT 20/06 A3002 RMK A01 T01990064  RH  041%=      5-min Rain = 0
KSB1 082150Z 29017G22KT 20/06 A3002 RMK A01 T01980064  RH  042%=      5-min Rain = 0
KSB1 082151Z 28017KT 20/06 A3002 RMK A01 T01970063  RH  042%=      5-min Rain = 0
KSB1 082152Z 28016KT 20/06 A3002 RMK A01 T01970063  RH  042%=      5-min Rain = 0
KSB1 082153Z 29016G21KT 20/06 A3002 RMK A01 T01980063  RH  041%=      5-min Rain = 0
KSB1 082154Z 28016G21KT 20/06 A3002 RMK A01 T01990064  RH  041%=      5-min Rain = 0
KSB1 082155Z 28015KT 20/06 A3002 RMK A01 T01980063  RH  041%=      5-min Rain = 0
KSB1 082156Z 28017KT 20/06 A3002 RMK A01 T01980063  RH  042%=      5-min Rain = 0
KSB1 082157Z 29018G23KT 20/06 A3002 RMK A01 T01960063  RH  042%=      5-min Rain = 0
KSB1 082158Z 28015G20KT 20/06 A3002 RMK A01 T01960063  RH  042%=      5-min Rain = 0
KSB1 082159Z 29012KT 20/06 A3002 RMK A01 T01950063  RH  042%=      5-min Rain = 0
KSB1 082200Z 28015KT 19/06 A3002 RMK A01 T01940064  RH  042%=      5-min Rain = 0
KSB1 082201Z 29014KT 19/06 A3002 RMK A01 T01940063  RH  043%=      5-min Rain = 0
KSB1 082202Z 28015KT 19/06 A3002 RMK A01 T01940064  RH  043%=      5-min Rain = 0
KSB1 082203Z 29011KT 19/06 A3002 RMK A01 T01940064  RH  043%=      5-min Rain = 0
KSB1 082204Z 29011KT 19/06 A3002 RMK A01 T01940064  RH  043%=      5-min Rain = 0
KSB1 082205Z 29016KT 19/06 A3002 RMK A01 T01940064  RH  043%=      5-min Rain = 0
KSB1 082206Z 27016KT 19/06 A3002 RMK A01 T01940063  RH  043%=      5-min Rain = 0
KSB1 082207Z 28014KT 19/06 A3002 RMK A01 T01940064  RH  043%=      5-min Rain = 0
KSB1 082208Z 28016G21KT 19/06 A3002 RMK A01 T01940064  RH  043%=      5-min Rain = 0
KSB1 082209Z 28015KT 19/06 A3002 RMK A01 T01940064  RH  043%=      5-min Rain = 0
KSB1 082210Z 29013KT 19/06 A3002 RMK A01 T01930063  RH  043%=      5-min Rain = 0
KSB1 082211Z 28012G17KT 19/06 A3002 RMK A01 T01930064  RH  043%=      5-min Rain = 0
KSB1 082212Z 27015KT 19/06 A3002 RMK A01 T01930063  RH  043%=      5-min Rain = 0
KSB1 082213Z 27015KT 19/06 A3002 RMK A01 T01930063  RH  043%=      5-min Rain = 0
KSB1 082214Z 27013KT 19/06 A3002 RMK A01 T01930064  RH  043%=      5-min Rain = 0
KSB1 082215Z 28013KT 19/06 A3002 RMK A01 T01930063  RH  043%=      5-min Rain = 0
KSB1 082216Z 29012KT 19/06 A3002 RMK A01 T01930063  RH  043%=      5-min Rain = 0
KSB1 082217Z 30010G15KT 19/06 A3002 RMK A01 T01930064  RH  043%=      5-min Rain = 0
KSB1 082218Z 28015KT 19/06 A3002 RMK A01 T01930063  RH  043%=      5-min Rain = 0
KSB1 082219Z 30016KT 19/06 A3002 RMK A01 T01930063  RH  043%=      5-min Rain = 0
KSB1 082220Z 28014KT 19/06 A3002 RMK A01 T01930063  RH  043%=      5-min Rain = 0
KSB1 082221Z 28015KT 19/06 A3002 RMK A01 T01930063  RH  043%=      5-min Rain = 0
KSB1 082222Z 28014KT 19/06 A3002 RMK A01 T01920063  RH  043%=      5-min Rain = 0
KSB1 082223Z 27014KT 19/06 A3002 RMK A01 T01920063  RH  043%=      5-min Rain = 0
KSB1 082224Z 29013KT 19/06 A3002 RMK A01 T01910063  RH  043%=      5-min Rain = 0
KSB1 082225Z 29012KT 19/06 A3002 RMK A01 T01910063  RH  043%=      5-min Rain = 0
KSB1 082226Z 29013KT 19/06 A3002 RMK A01 T01910063  RH  043%=      5-min Rain = 0
KSB1 082227Z 29014KT 19/06 A3002 RMK A01 T01910063  RH  043%=      5-min Rain = 0
KSB1 082228Z 30013KT 19/06 A3002 RMK A01 T01910062  RH  043%=      5-min Rain = 0
KSB1 082229Z 29011G16KT 19/06 A3002 RMK A01 T01910063  RH  043%=      5-min Rain = 0
KSB1 082230Z 28015KT 19/06 A3002 RMK A01 T01910063  RH  043%=      5-min Rain = 0
KSB1 082231Z 30011KT 19/06 A3002 RMK A01 T01900062  RH  043%=      5-min Rain = 0
KSB1 082232Z 29014G20KT 19/06 A3002 RMK A01 T01910063  RH  043%=      5-min Rain = 0
KSB1 082233Z 29012KT 19/06 A3002 RMK A01 T01900062  RH  043%=      5-min Rain = 0
KSB1 082234Z 29013KT 19/06 A3002 RMK A01 T01900062  RH  043%=      5-min Rain = 0
KSB1 082235Z 28013KT 19/06 A3002 RMK A01 T01890062  RH  043%=      5-min Rain = 0
KSB1 082236Z 29017KT 19/06 A3002 RMK A01 T01890062  RH  043%=      5-min Rain = 0
KSB1 082237Z 28014KT 19/06 A3002 RMK A01 T01900062  RH  043%=      5-min Rain = 0
KSB1 082238Z 29013KT 19/06 A3002 RMK A01 T01890062  RH  043%=      5-min Rain = 0
KSB1 082239Z 28015KT 19/06 A3002 RMK A01 T01890063  RH  044%=      5-min Rain = 0
KSB1 082240Z 28016KT 19/06 A3002 RMK A01 T01890062  RH  044%=      5-min Rain = 0
KSB1 082241Z 29016KT 19/06 A3002 RMK A01 T01880062  RH  044%=      5-min Rain = 0
KSB1 082242Z 27014KT 19/06 A3002 RMK A01 T01880062  RH  044%=      5-min Rain = 0
KSB1 082243Z 29013KT 19/06 A3002 RMK A01 T01880062  RH  044%=      5-min Rain = 0
KSB1 082244Z 29010G15KT 19/06 A3002 RMK A01 T01880063  RH  044%=      5-min Rain = 0
KSB1 082245Z 28015KT 19/06 A3002 RMK A01 T01880062  RH  044%=      5-min Rain = 0
KSB1 082246Z 29016KT 19/06 A3002 RMK A01 T01880062  RH  044%=      5-min Rain = 0
KSB1 082247Z 29013KT 19/06 A3002 RMK A01 T01880062  RH  044%=      5-min Rain = 0
KSB1 082248Z 28015KT 19/06 A3002 RMK A01 T01870062  RH  044%=      5-min Rain = 0
KSB1 082249Z 28013KT 19/06 A3002 RMK A01 T01880063  RH  044%=      5-min Rain = 0
KSB1 082250Z 29014KT 19/06 A3002 RMK A01 T01870063  RH  044%=      5-min Rain = 0
KSB1 082251Z 28014KT 19/06 A3002 RMK A01 T01870062  RH  044%=      5-min Rain = 0
KSB1 082252Z 28011KT 19/06 A3002 RMK A01 T01870062  RH  044%=      5-min Rain = 0
KSB1 082253Z 28012KT 19/06 A3002 RMK A01 T01870063  RH  044%=      5-min Rain = 0
KSB1 082254Z 28012KT 19/06 A3002 RMK A01 T01860063  RH  044%=      5-min Rain = 0
KSB1 082255Z 29011KT 19/06 A3002 RMK A01 T01860063  RH  044%=      5-min Rain = 0
KSB1 082256Z 29011KT 19/06 A3002 RMK A01 T01860063  RH  044%=      5-min Rain = 0
KSB1 082257Z 29013KT 19/06 A3002 RMK A01 T01860063  RH  045%=      5-min Rain = 0
KSB1 082258Z 28012KT 19/06 A3002 RMK A01 T01860063  RH  045%=      5-min Rain = 0
KSB1 082259Z 28012KT 19/06 A3002 RMK A01 T01850063  RH  045%=      5-min Rain = 0
KSB1 082300Z 28011KT 19/06 A3002 RMK A01 T01850063  RH  045%=      5-min Rain = 0
KSB1 082301Z 30010G15KT 19/06 A3002 RMK A01 T01850063  RH  045%=      5-min Rain = 0
KSB1 082302Z 30008KT 19/06 A3002 RMK A01 T01850063  RH  045%=      5-min Rain = 0
KSB1 082303Z 30007KT 19/06 A3002 RMK A01 T01850063  RH  045%=      5-min Rain = 0
KSB1 082304Z 29008KT 19/06 A3002 RMK A01 T01850063  RH  045%=      5-min Rain = 0
KSB1 082305Z 28009KT 18/06 A3002 RMK A01 T01840063  RH  045%=      5-min Rain = 0
KSB1 082306Z 29011KT 18/06 A3002 RMK A01 T01840063  RH  045%=      5-min Rain = 0
KSB1 082307Z 29012KT 18/06 A3002 RMK A01 T01840063  RH  045%=      5-min Rain = 0
KSB1 082308Z 30012KT 18/06 A3002 RMK A01 T01840063  RH  045%=      5-min Rain = 0
KSB1 082309Z 29009KT 18/06 A3002 RMK A01 T01840063  RH  045%=      5-min Rain = 0
KSB1 082310Z 29009KT 18/06 A3002 RMK A01 T01840063  RH  045%=      5-min Rain = 0
KSB1 082311Z 29009KT 18/06 A3002 RMK A01 T01840063  RH  045%=      5-min Rain = 0
KSB1 082312Z 29008KT 18/06 A3002 RMK A01 T01830063  RH  045%=      5-min Rain = 0
KSB1 082313Z 29010KT 18/06 A3002 RMK A01 T01830063  RH  045%=      5-min Rain = 0
KSB1 082314Z 29009KT 18/06 A3002 RMK A01 T01830063  RH  045%=      5-min Rain = 0
KSB1 082315Z 29009KT 18/06 A3002 RMK A01 T01830063  RH  045%=      5-min Rain = 0
KSB1 082316Z 28013KT 18/06 A3002 RMK A01 T01830063  RH  045%=      5-min Rain = 0
KSB1 082317Z 28012KT 18/06 A3002 RMK A01 T01840063  RH  045%=      5-min Rain = 0
KSB1 082318Z 30008KT 18/06 A3002 RMK A01 T01830063  RH  045%=      5-min Rain = 0
KSB1 082319Z 30008KT 18/06 A3002 RMK A01 T01830063  RH  045%=      5-min Rain = 0
KSB1 082320Z 29012KT 18/06 A3002 RMK A01 T01830063  RH  046%=      5-min Rain = 0
KSB1 082321Z 30010KT 18/06 A3002 RMK A01 T01830063  RH  046%=      5-min Rain = 0
KSB1 082322Z 28011KT 18/06 A3002 RMK A01 T01830063  RH  046%=      5-min Rain = 0
KSB1 082323Z 29009KT 18/06 A3002 RMK A01 T01830063  RH  046%=      5-min Rain = 0
KSB1 082324Z 29006KT 18/06 A3003 RMK A01 T01820063  RH  046%=      5-min Rain = 0
KSB1 082325Z 30008KT 18/06 A3002 RMK A01 T01820064  RH  046%=      5-min Rain = 0
KSB1 082326Z 29007KT 18/06 A3002 RMK A01 T01820063  RH  046%=      5-min Rain = 0
KSB1 082327Z 29008KT 18/06 A3002 RMK A01 T01820064  RH  046%=      5-min Rain = 0
KSB1 082328Z 30010KT 18/06 A3002 RMK A01 T01820063  RH  046%=      5-min Rain = 0
KSB1 082329Z 29009KT 18/06 A3002 RMK A01 T01820063  RH  046%=      5-min Rain = 0
KSB1 082330Z 31009KT 18/06 A3002 RMK A01 T01820063  RH  046%=      5-min Rain = 0
KSB1 082331Z 30010KT 18/06 A3002 RMK A01 T01820063  RH  046%=      5-min Rain = 0
KSB1 082332Z 30010KT 18/06 A3002 RMK A01 T01820063  RH  046%=      5-min Rain = 0
KSB1 082333Z 31011KT 18/06 A3002 RMK A01 T01810063  RH  046%=      5-min Rain = 0
KSB1 082334Z 31013KT 18/06 A3002 RMK A01 T01810061  RH  045%=      5-min Rain = 0
KSB1 082335Z 30012KT 18/06 A3002 RMK A01 T01810061  RH  045%=      5-min Rain = 0
KSB1 082336Z 30013KT 18/06 A3002 RMK A01 T01810061  RH  046%=      5-min Rain = 0
KSB1 082337Z 31012G17KT 18/06 A3002 RMK A01 T01810061  RH  046%=      5-min Rain = 0
KSB1 082338Z 31014KT 18/06 A3002 RMK A01 T01800061  RH  046%=      5-min Rain = 0
KSB1 082339Z 31013KT 18/06 A3003 RMK A01 T01800061  RH  046%=      5-min Rain = 0
KSB1 082340Z 32013KT 18/06 A3003 RMK A01 T01800060  RH  046%=      5-min Rain = 0
KSB1 082341Z 31015KT 18/06 A3003 RMK A01 T01790061  RH  046%=      5-min Rain = 0
KSB1 082342Z 31015KT 18/06 A3002 RMK A01 T01790061  RH  046%=      5-min Rain = 0
KSB1 082343Z 31013KT 18/06 A3002 RMK A01 T01790060  RH  046%=      5-min Rain = 0
KSB1 082344Z 31013KT 18/06 A3002 RMK A01 T01790061  RH  046%=      5-min Rain = 0
KSB1 082345Z 31014KT 18/06 A3002 RMK A01 T01790061  RH  046%=      5-min Rain = 0
KSB1 082346Z 31013KT 18/06 A3003 RMK A01 T01780061  RH  046%=      5-min Rain = 0
KSB1 082347Z 31015KT 18/06 A3003 RMK A01 T01780061  RH  046%=      5-min Rain = 0
KSB1 082348Z 30014KT 18/06 A3002 RMK A01 T01780061  RH  046%=      5-min Rain = 0
KSB1 082349Z 31013KT 18/06 A3002 RMK A01 T01780062  RH  046%=      5-min Rain = 0
KSB1 082350Z 31013KT 18/06 A3002 RMK A01 T01780062  RH  047%=      5-min Rain = 0
KSB1 082351Z 31014KT 18/06 A3002 RMK A01 T01770062  RH  047%=      5-min Rain = 0
KSB1 082352Z 32014KT 18/06 A3002 RMK A01 T01770062  RH  047%=      5-min Rain = 0
KSB1 082353Z 32014KT 18/06 A3002 RMK A01 T01760062  RH  047%=      5-min Rain = 0
KSB1 082354Z 31014KT 18/06 A3002 RMK A01 T01760062  RH  047%=      5-min Rain = 0
KSB1 082355Z 31012KT 18/06 A3002 RMK A01 T01760061  RH  047%=      5-min Rain = 0
KSB1 082356Z 32013KT 18/06 A3002 RMK A01 T01750061  RH  047%=      5-min Rain = 0
KSB1 082357Z 31013KT 18/06 A3002 RMK A01 T01750061  RH  047%=      5-min Rain = 0
KSB1 082358Z 31012KT 18/06 A3002 RMK A01 T01750061  RH  047%=      5-min Rain = 0
KSB1 082359Z 31012KT 18/06 A3002 RMK A01 T01750061  RH  047%=      5-min Rain = 0
KSB1 090000Z 31011KT 18/06 A3002 RMK A01 T01750061  RH  047%=      5-min Rain = 0
KSB1 090001Z 31011KT 17/06 A3002 RMK A01 T01740061  RH  047%=      5-min Rain = 0
KSB1 090002Z 31012KT 17/06 A3002 RMK A01 T01740061  RH  047%=      5-min Rain = 0
KSB1 090003Z 31009KT 17/06 A3002 RMK A01 T01740061  RH  048%=      5-min Rain = 0
KSB1 090004Z 31009KT 17/06 A3002 RMK A01 T01730061  RH  048%=      5-min Rain = 0
KSB1 090005Z 31010KT 17/06 A3002 RMK A01 T01730061  RH  048%=      5-min Rain = 0
KSB1 090006Z 31010KT 17/06 A3002 RMK A01 T01720061  RH  048%=      5-min Rain = 0
KSB1 090007Z 31010KT 17/06 A3002 RMK A01 T01720061  RH  048%=      5-min Rain = 0
KSB1 090008Z 30011KT 17/06 A3002 RMK A01 T01720061  RH  048%=      5-min Rain = 0
KSB1 090009Z 30010KT 17/06 A3002 RMK A01 T01720061  RH  048%=      5-min Rain = 0
KSB1 090010Z 31010KT 17/06 A3002 RMK A01 T01720061  RH  048%=      5-min Rain = 0
KSB1 090011Z 30010KT 17/06 A3002 RMK A01 T01720061  RH  048%=      5-min Rain = 0
KSB1 090012Z 31009KT 17/06 A3002 RMK A01 T01710061  RH  048%=      5-min Rain = 0
KSB1 090013Z 30008KT 17/06 A3003 RMK A01 T01710061  RH  048%=      5-min Rain = 0
KSB1 090014Z 31009KT 17/06 A3003 RMK A01 T01710061  RH  048%=      5-min Rain = 0
KSB1 090015Z 32011KT 17/06 A3003 RMK A01 T01710061  RH  048%=      5-min Rain = 0
KSB1 090016Z 31008KT 17/06 A3003 RMK A01 T01710061  RH  048%=      5-min Rain = 0
KSB1 090017Z 31009KT 17/06 A3003 RMK A01 T01700061  RH  048%=      5-min Rain = 0
KSB1 090018Z 32011KT 17/06 A3003 RMK A01 T01710061  RH  049%=      5-min Rain = 0
KSB1 090019Z 32011KT 17/06 A3003 RMK A01 T01700061  RH  049%=      5-min Rain = 0
KSB1 090020Z 31014KT 17/06 A3002 RMK A01 T01700061  RH  049%=      5-min Rain = 0
KSB1 090021Z 31013KT 17/06 A3002 RMK A01 T01700061  RH  048%=      5-min Rain = 0
KSB1 090022Z 31012KT 17/06 A3002 RMK A01 T01700061  RH  048%=      5-min Rain = 0
KSB1 090023Z 31011KT 17/06 A3002 RMK A01 T01710061  RH  048%=      5-min Rain = 0
KSB1 090024Z 32012KT 17/06 A3002 RMK A01 T01710061  RH  048%=      5-min Rain = 0
KSB1 090025Z 31013KT 17/06 A3002 RMK A01 T01710061  RH  048%=      5-min Rain = 0
KSB1 090026Z 31011KT 17/06 A3003 RMK A01 T01710061  RH  048%=      5-min Rain = 0
KSB1 090027Z 31012KT 17/06 A3003 RMK A01 T01710061  RH  048%=      5-min Rain = 0
KSB1 090028Z 31010KT 17/06 A3003 RMK A01 T01700061  RH  049%=      5-min Rain = 0
KSB1 090029Z 32013KT 17/06 A3003 RMK A01 T01700061  RH  049%=      5-min Rain = 0
KSB1 090030Z 32012G17KT 17/06 A3003 RMK A01 T01700061  RH  049%=      5-min Rain = 0
KSB1 090031Z 31012G17KT 17/06 A3003 RMK A01 T01700061  RH  049%=      5-min Rain = 0
KSB1 090032Z 31014G19KT 17/06 A3003 RMK A01 T01700062  RH  049%=      5-min Rain = 0
KSB1 090033Z 31012KT 17/06 A3002 RMK A01 T01700061  RH  049%=      5-min Rain = 0
KSB1 090034Z 32012KT 17/06 A3002 RMK A01 T01700061  RH  049%=      5-min Rain = 0
KSB1 090035Z 31014KT 17/06 A3003 RMK A01 T01690061  RH  049%=      5-min Rain = 0
KSB1 090036Z 31013KT 17/06 A3003 RMK A01 T01690061  RH  049%=      5-min Rain = 0
KSB1 090037Z 31013KT 17/06 A3003 RMK A01 T01680061  RH  049%=      5-min Rain = 0
KSB1 090038Z 31012KT 17/06 A3003 RMK A01 T01680061  RH  049%=      5-min Rain = 0
KSB1 090039Z 31015KT 17/06 A3003 RMK A01 T01680061  RH  049%=      5-min Rain = 0
KSB1 090040Z 32015KT 17/06 A3003 RMK A01 T01670061  RH  049%=      5-min Rain = 0
KSB1 090041Z 31016KT 17/06 A3003 RMK A01 T01670060  RH  049%=      5-min Rain = 0
KSB1 090042Z 31014G20KT 17/06 A3003 RMK A01 T01660059  RH  049%=      5-min Rain = 0
KSB1 090043Z 31015KT 17/06 A3003 RMK A01 T01650058  RH  049%=      5-min Rain = 0
KSB1 090044Z 31016KT 17/06 A3003 RMK A01 T01650057  RH  049%=      5-min Rain = 0
KSB1 090045Z 31017KT 17/06 A3003 RMK A01 T01650057  RH  049%=      5-min Rain = 0
KSB1 090046Z 31014KT 17/06 A3003 RMK A01 T01650057  RH  049%=      5-min Rain = 0
KSB1 090047Z 31014KT 17/06 A3003 RMK A01 T01650057  RH  049%=      5-min Rain = 0
KSB1 090048Z 31015KT 16/06 A3003 RMK A01 T01640057  RH  049%=      5-min Rain = 0
KSB1 090049Z 31013G18KT 16/06 A3003 RMK A01 T01640057  RH  049%=      5-min Rain = 0
KSB1 090050Z 31015KT 16/06 A3003 RMK A01 T01640057  RH  049%=      5-min Rain = 0
KSB1 090051Z 31013KT 16/06 A3003 RMK A01 T01640057  RH  049%=      5-min Rain = 0
KSB1 090052Z 31011KT 16/06 A3003 RMK A01 T01640057  RH  049%=      5-min Rain = 0
KSB1 090053Z 31012G17KT 16/06 A3003 RMK A01 T01630057  RH  049%=      5-min Rain = 0
KSB1 090054Z 31013KT 16/06 A3003 RMK A01 T01620057  RH  050%=      5-min Rain = 0
KSB1 090055Z 31012KT 16/06 A3003 RMK A01 T01620057  RH  050%=      5-min Rain = 0
KSB1 090056Z 31012KT 16/06 A3003 RMK A01 T01630057  RH  050%=      5-min Rain = 0
KSB1 090057Z 31011KT 16/06 A3004 RMK A01 T01620057  RH  050%=      5-min Rain = 0
KSB1 090058Z 31012KT 16/06 A3004 RMK A01 T01620058  RH  050%=      5-min Rain = 0
KSB1 090059Z 31014KT 16/06 A3004 RMK A01 T01620057  RH  050%=      5-min Rain = 0
KSB1 090100Z 31013KT 16/06 A3004 RMK A01 T01620058  RH  050%=      5-min Rain = 0
KSB1 090101Z 31014KT 16/06 A3004 RMK A01 T01610057  RH  050%=      5-min Rain = 0
KSB1 090102Z 31013KT 16/06 A3004 RMK A01 T01620057  RH  050%=      5-min Rain = 0
KSB1 090103Z 31013KT 16/06 A3004 RMK A01 T01610057  RH  050%=      5-min Rain = 0
KSB1 090104Z 31014KT 16/06 A3004 RMK A01 T01610057  RH  050%=      5-min Rain = 0
KSB1 090105Z 32011KT 16/06 A3004 RMK A01 T01610057  RH  050%=      5-min Rain = 0
KSB1 090106Z 32011KT 16/06 A3004 RMK A01 T01610058  RH  050%=      5-min Rain = 0
KSB1 090107Z 31012KT 16/06 A3004 RMK A01 T01600058  RH  051%=      5-min Rain = 0
KSB1 090108Z 31013KT 16/06 A3005 RMK A01 T01600058  RH  051%=      5-min Rain = 0
KSB1 090109Z 31013KT 16/06 A3005 RMK A01 T01600058  RH  051%=      5-min Rain = 0
KSB1 090110Z 32012KT 16/06 A3004 RMK A01 T01600058  RH  051%=      5-min Rain = 0
KSB1 090111Z 31010KT 16/06 A3004 RMK A01 T01600058  RH  051%=      5-min Rain = 0
KSB1 090112Z 32010G16KT 16/06 A3004 RMK A01 T01590061  RH  052%=      5-min Rain = 0
KSB1 090113Z 31013KT 16/07 A3005 RMK A01 T01580065  RH  054%=      5-min Rain = 0
KSB1 090114Z 31014KT 16/07 A3005 RMK A01 T01560074  RH  058%=      5-min Rain = 0
KSB1 090115Z 32010KT 15/08 A3004 RMK A01 T01530075  RH  060%=      5-min Rain = 0
KSB1 090116Z 32010KT 15/07 A3004 RMK A01 T01510074  RH  060%=      5-min Rain = 0
KSB1 090117Z 31012KT 15/08 A3004 RMK A01 T01500075  RH  061%=      5-min Rain = 0
KSB1 090118Z 32012KT 15/08 A3004 RMK A01 T01490076  RH  062%=      5-min Rain = 0
KSB1 090119Z 32009KT 15/08 A3004 RMK A01 T01480078  RH  063%=      5-min Rain = 0
KSB1 090120Z 31013KT 15/08 A3004 RMK A01 T01470077  RH  063%=      5-min Rain = 0
KSB1 090121Z 32012KT 15/07 A3004 RMK A01 T01470072  RH  061%=      5-min Rain = 0
KSB1 090122Z 32011KT 15/07 A3004 RMK A01 T01480073  RH  061%=      5-min Rain = 0
KSB1 090123Z 31013KT 15/07 A3004 RMK A01 T01480073  RH  061%=      5-min Rain = 0
KSB1 090124Z 31013KT 15/07 A3004 RMK A01 T01480069  RH  059%=      5-min Rain = 0
KSB1 090125Z 31013KT 15/07 A3004 RMK A01 T01490068  RH  059%=      5-min Rain = 0
KSB1 090126Z 31012KT 15/07 A3004 RMK A01 T01490068  RH  058%=      5-min Rain = 0
KSB1 090127Z 31011KT 15/07 A3004 RMK A01 T01490068  RH  058%=      5-min Rain = 0
KSB1 090128Z 31011KT 15/07 A3004 RMK A01 T01490067  RH  058%=      5-min Rain = 0
KSB1 090129Z 31012KT 15/07 A3004 RMK A01 T01490066  RH  057%=      5-min Rain = 0
KSB1 090130Z 32011G16KT 15/07 A3004 RMK A01 T01490065  RH  057%=      5-min Rain = 0
KSB1 090131Z 31010KT 15/07 A3003 RMK A01 T01500065  RH  057%=      5-min Rain = 0
KSB1 090132Z 32011KT 15/06 A3003 RMK A01 T01500064  RH  057%=      5-min Rain = 0
KSB1 090133Z 31013KT 15/06 A3003 RMK A01 T01490064  RH  056%=      5-min Rain = 0
KSB1 090134Z 31011KT 15/06 A3003 RMK A01 T01500062  RH  056%=      5-min Rain = 0
KSB1 090135Z 32010KT 15/06 A3003 RMK A01 T01500062  RH  056%=      5-min Rain = 0
KSB1 090136Z 32009KT 15/06 A3003 RMK A01 T01500063  RH  056%=      5-min Rain = 0
KSB1 090137Z 31011KT 15/06 A3003 RMK A01 T01500063  RH  056%=      5-min Rain = 0
KSB1 090138Z 32011KT 15/06 A3003 RMK A01 T01500062  RH  056%=      5-min Rain = 0
KSB1 090139Z 31011KT 15/06 A3003 RMK A01 T01490062  RH  056%=      5-min Rain = 0
KSB1 090140Z 31012KT 15/06 A3003 RMK A01 T01490062  RH  056%=      5-min Rain = 0
KSB1 090141Z 32011KT 15/06 A3003 RMK A01 T01490061  RH  056%=      5-min Rain = 0
KSB1 090142Z 32008KT 15/06 A3004 RMK A01 T01490061  RH  056%=      5-min Rain = 0
KSB1 090143Z 32008KT 15/06 A3004 RMK A01 T01480062  RH  056%=      5-min Rain = 0
KSB1 090144Z 32008KT 15/06 A3004 RMK A01 T01470062  RH  057%=      5-min Rain = 0
KSB1 090145Z 32013KT 15/06 A3004 RMK A01 T01470061  RH  056%=      5-min Rain = 0
KSB1 090146Z 32010G15KT 15/06 A3004 RMK A01 T01470058  RH  055%=      5-min Rain = 0
KSB1 090147Z 32010KT 15/06 A3004 RMK A01 T01480060  RH  055%=      5-min Rain = 0
KSB1 090148Z 32009KT 15/06 A3004 RMK A01 T01480059  RH  055%=      5-min Rain = 0
KSB1 090149Z 32011KT 15/06 A3004 RMK A01 T01480059  RH  055%=      5-min Rain = 0
KSB1 090150Z 32010KT 15/06 A3004 RMK A01 T01470058  RH  055%=      5-min Rain = 0
KSB1 090151Z 33010KT 15/06 A3004 RMK A01 T01470058  RH  055%=      5-min Rain = 0
KSB1 090152Z 33009KT 15/06 A3004 RMK A01 T01470059  RH  056%=      5-min Rain = 0
KSB1 090153Z 32008G13KT 15/06 A3004 RMK A01 T01460059  RH  056%=      5-min Rain = 0
KSB1 090154Z 33007KT 15/06 A3004 RMK A01 T01460061  RH  057%=      5-min Rain = 0
KSB1 090155Z 33009G14KT 15/06 A3004 RMK A01 T01450060  RH  057%=      5-min Rain = 0
KSB1 090156Z 32009G14KT 14/06 A3004 RMK A01 T01440058  RH  056%=      5-min Rain = 0
KSB1 090157Z 33006KT 14/06 A3004 RMK A01 T01440058  RH  056%=      5-min Rain = 0
KSB1 090158Z 33005KT 14/06 A3004 RMK A01 T01440059  RH  057%=      5-min Rain = 0
KSB1 090159Z 34006KT 14/06 A3004 RMK A01 T01430061  RH  058%=      5-min Rain = 0
KSB1 090200Z 33007KT 14/06 A3004 RMK A01 T01410061  RH  059%=      5-min Rain = 0
KSB1 090201Z 33005KT 14/06 A3004 RMK A01 T01410060  RH  058%=      5-min Rain = 0
KSB1 090202Z 33006KT 14/06 A3004 RMK A01 T01410061  RH  059%=      5-min Rain = 0
KSB1 090203Z 33007KT 14/06 A3004 RMK A01 T01400061  RH  059%=      5-min Rain = 0
KSB1 090204Z 33006KT 14/06 A3004 RMK A01 T01390060  RH  059%=      5-min Rain = 0
KSB1 090205Z 33006KT 14/06 A3004 RMK A01 T01390061  RH  059%=      5-min Rain = 0
KSB1 090206Z 34007G12KT 14/06 A3004 RMK A01 T01390061  RH  059%=      5-min Rain = 0
KSB1 090207Z 33008KT 14/06 A3004 RMK A01 T01380059  RH  059%=      5-min Rain = 0
KSB1 090208Z 33006KT 14/06 A3004 RMK A01 T01390059  RH  059%=      5-min Rain = 0
KSB1 090209Z 33007KT 14/06 A3004 RMK A01 T01380060  RH  059%=      5-min Rain = 0
KSB1 090210Z 32008KT 14/06 A3004 RMK A01 T01380060  RH  059%=      5-min Rain = 0
KSB1 090211Z 33007KT 14/06 A3004 RMK A01 T01370060  RH  059%=      5-min Rain = 0
KSB1 090212Z 32008G13KT 14/06 A3004 RMK A01 T01370059  RH  059%=      5-min Rain = 0
KSB1 090213Z 33008KT 14/06 A3004 RMK A01 T01370059  RH  059%=      5-min Rain = 0
KSB1 090214Z 33008KT 14/06 A3004 RMK A01 T01370060  RH  059%=      5-min Rain = 0
KSB1 090215Z 33009KT 14/06 A3004 RMK A01 T01370060  RH  059%=      5-min Rain = 0
KSB1 090216Z 33008KT 14/06 A3004 RMK A01 T01380060  RH  059%=      5-min Rain = 0
KSB1 090217Z 33007KT 14/06 A3004 RMK A01 T01380060  RH  060%=      5-min Rain = 0
KSB1 090218Z 33006KT 14/06 A3004 RMK A01 T01360060  RH  060%=      5-min Rain = 0
KSB1 090219Z 33007KT 14/06 A3004 RMK A01 T01350061  RH  061%=      5-min Rain = 0
KSB1 090220Z 33007KT 13/06 A3004 RMK A01 T01340060  RH  061%=      5-min Rain = 0
KSB1 090221Z 33007KT 13/06 A3004 RMK A01 T01330060  RH  061%=      5-min Rain = 0
KSB1 090222Z 34007KT 13/06 A3004 RMK A01 T01320060  RH  061%=      5-min Rain = 0
KSB1 090223Z 34006KT 13/06 A3004 RMK A01 T01320060  RH  062%=      5-min Rain = 0
KSB1 090224Z 34006KT 13/06 A3004 RMK A01 T01320060  RH  062%=      5-min Rain = 0
KSB1 090225Z 34006KT 13/06 A3004 RMK A01 T01310060  RH  062%=      5-min Rain = 0
KSB1 090226Z 33006KT 13/06 A3004 RMK A01 T01310060  RH  062%=      5-min Rain = 0
KSB1 090227Z 34006KT 13/06 A3004 RMK A01 T01310060  RH  062%=      5-min Rain = 0
KSB1 090228Z 34006KT 13/06 A3004 RMK A01 T01320060  RH  062%=      5-min Rain = 0
KSB1 090229Z 34006KT 13/06 A3004 RMK A01 T01310061  RH  062%=      5-min Rain = 0
KSB1 090230Z 34006KT 13/06 A3004 RMK A01 T01310061  RH  063%=      5-min Rain = 0
KSB1 090231Z 34006KT 13/06 A3004 RMK A01 T01300061  RH  063%=      5-min Rain = 0
KSB1 090232Z 34004KT 13/06 A3004 RMK A01 T01300061  RH  063%=      5-min Rain = 0
KSB1 090233Z 34005KT 13/06 A3004 RMK A01 T01300062  RH  063%=      5-min Rain = 0
KSB1 090234Z 34005KT 13/06 A3003 RMK A01 T01300061  RH  063%=      5-min Rain = 0
KSB1 090235Z 35004KT 13/06 A3003 RMK A01 T01300061  RH  063%=      5-min Rain = 0
KSB1 090236Z 35005KT 13/06 A3003 RMK A01 T01300062  RH  063%=      5-min Rain = 0
KSB1 090237Z 35005KT 13/06 A3004 RMK A01 T01300061  RH  063%=      5-min Rain = 0
KSB1 090238Z 35004KT 13/06 A3004 RMK A01 T01300061  RH  063%=      5-min Rain = 0
KSB1 090239Z 35005KT 13/06 A3004 RMK A01 T01300063  RH  064%=      5-min Rain = 0
KSB1 090240Z 33005KT 13/06 A3004 RMK A01 T01300062  RH  063%=      5-min Rain = 0
KSB1 090241Z 34005KT 13/06 A3004 RMK A01 T01300061  RH  063%=      5-min Rain = 0
KSB1 090242Z 34005KT 13/06 A3004 RMK A01 T01310061  RH  063%=      5-min Rain = 0
KSB1 090243Z 32007KT 13/06 A3004 RMK A01 T01310062  RH  063%=      5-min Rain = 0
KSB1 090244Z 32006KT 13/06 A3004 RMK A01 T01320061  RH  062%=      5-min Rain = 0
KSB1 090245Z 35005KT 13/06 A3004 RMK A01 T01340062  RH  061%=      5-min Rain = 0
KSB1 090246Z 35004KT 14/06 A3004 RMK A01 T01350061  RH  061%=      5-min Rain = 0
KSB1 090247Z 00004KT 14/06 A3004 RMK A01 T01350061  RH  061%=      5-min Rain = 0
KSB1 090248Z 35003KT 14/06 A3004 RMK A01 T01350062  RH  061%=      5-min Rain = 0
KSB1 090249Z 00004KT 13/06 A3004 RMK A01 T01340062  RH  062%=      5-min Rain = 0
KSB1 090250Z 01004KT 13/06 A3004 RMK A01 T01330062  RH  062%=      5-min Rain = 0
KSB1 090251Z 01005KT 13/06 A3004 RMK A01 T01320062  RH  062%=      5-min Rain = 0
KSB1 090252Z 00004KT 13/06 A3004 RMK A01 T01320062  RH  063%=      5-min Rain = 0
KSB1 090253Z 01004KT 13/06 A3004 RMK A01 T01320062  RH  062%=      5-min Rain = 0
KSB1 090254Z 01004KT 13/06 A3004 RMK A01 T01310062  RH  063%=      5-min Rain = 0
KSB1 090255Z 36005KT 13/06 A3004 RMK A01 T01310062  RH  063%=      5-min Rain = 0
KSB1 090256Z 01004KT 13/06 A3004 RMK A01 T01310062  RH  063%=      5-min Rain = 0
KSB1 090257Z 02004KT 13/06 A3004 RMK A01 T01310063  RH  063%=      5-min Rain = 0
KSB1 090258Z 02004KT 13/06 A3004 RMK A01 T01310063  RH  063%=      5-min Rain = 0
KSB1 090259Z 02003KT 13/06 A3004 RMK A01 T01300064  RH  064%=      5-min Rain = 0
KSB1 090300Z 01002KT 13/06 A3004 RMK A01 T01300064  RH  064%=      5-min Rain = 0
KSB1 090301Z 01002KT 13/06 A3004 RMK A01 T01290064  RH  064%=      5-min Rain = 0
KSB1 090302Z 02002KT 13/06 A3004 RMK A01 T01290063  RH  064%=      5-min Rain = 0
KSB1 090303Z 01002KT 13/06 A3004 RMK A01 T01290063  RH  064%=      5-min Rain = 0
KSB1 090304Z 02002KT 13/06 A3005 RMK A01 T01290063  RH  064%=      5-min Rain = 0
KSB1 090305Z 00002KT 13/06 A3005 RMK A01 T01290063  RH  064%=      5-min Rain = 0
KSB1 090306Z 01002KT 13/06 A3004 RMK A01 T01290063  RH  064%=      5-min Rain = 0
KSB1 090307Z 02001KT 13/06 A3004 RMK A01 T01290064  RH  064%=      5-min Rain = 0
KSB1 090308Z 03001KT 13/06 A3004 RMK A01 T01290064  RH  065%=      5-min Rain = 0
KSB1 090309Z 03002KT 13/06 A3004 RMK A01 T01290064  RH  065%=      5-min Rain = 0
KSB1 090310Z 01002KT 13/06 A3004 RMK A01 T01280064  RH  065%=      5-min Rain = 0
KSB1 090311Z 00002KT 13/06 A3004 RMK A01 T01280064  RH  065%=      5-min Rain = 0
KSB1 090312Z 34002KT 13/07 A3004 RMK A01 T01280065  RH  065%=      5-min Rain = 0
KSB1 090313Z 34003KT 13/06 A3004 RMK A01 T01280064  RH  065%=      5-min Rain = 0
KSB1 090314Z 35002KT 13/06 A3004 RMK A01 T01280063  RH  065%=      5-min Rain = 0
KSB1 090315Z 33002KT 13/06 A3004 RMK A01 T01280063  RH  065%=      5-min Rain = 0
KSB1 090316Z 32001KT 13/06 A3004 RMK A01 T01270063  RH  065%=      5-min Rain = 0
KSB1 090317Z 31002KT 13/06 A3004 RMK A01 T01280063  RH  065%=      5-min Rain = 0
KSB1 090318Z 30002KT 13/06 A3004 RMK A01 T01280063  RH  065%=      5-min Rain = 0
KSB1 090319Z 31002KT 13/06 A3004 RMK A01 T01280063  RH  065%=      5-min Rain = 0
KSB1 090320Z 34003KT 13/06 A3004 RMK A01 T01280063  RH  065%=      5-min Rain = 0
KSB1 090321Z 34002KT 13/06 A3005 RMK A01 T01290063  RH  064%=      5-min Rain = 0
KSB1 090322Z 32002KT 13/06 A3005 RMK A01 T01300063  RH  064%=      5-min Rain = 0
KSB1 090323Z 32002KT 13/06 A3005 RMK A01 T01310063  RH  064%=      5-min Rain = 0
KSB1 090324Z 36002KT 13/06 A3005 RMK A01 T01320063  RH  063%=      5-min Rain = 0
KSB1 090325Z 35003KT 13/06 A3005 RMK A01 T01310063  RH  063%=      5-min Rain = 0
KSB1 090326Z 31004KT 13/06 A3005 RMK A01 T01320064  RH  064%=      5-min Rain = 0
KSB1 090327Z 01003KT 13/06 A3005 RMK A01 T01320063  RH  063%=      5-min Rain = 0
KSB1 090328Z 35004KT 13/06 A3005 RMK A01 T01330064  RH  063%=      5-min Rain = 0
KSB1 090329Z 34004KT 13/07 A3005 RMK A01 T01330065  RH  063%=      5-min Rain = 0
KSB1 090330Z 35003KT 13/06 A3005 RMK A01 T01330064  RH  063%=      5-min Rain = 0
KSB1 090331Z 34004KT 13/06 A3005 RMK A01 T01330064  RH  063%=      5-min Rain = 0
KSB1 090332Z 34004KT 13/06 A3005 RMK A01 T01330064  RH  063%=      5-min Rain = 0
KSB1 090333Z 35005KT 13/06 A3005 RMK A01 T01330063  RH  063%=      5-min Rain = 0
KSB1 090334Z 34006KT 13/06 A3005 RMK A01 T01330063  RH  063%=      5-min Rain = 0
KSB1 090335Z 32006KT 13/06 A3005 RMK A01 T01340064  RH  063%=      5-min Rain = 0
KSB1 090336Z 35004KT 14/07 A3005 RMK A01 T01350065  RH  062%=      5-min Rain = 0
KSB1 090337Z 35005KT 13/07 A3005 RMK A01 T01340065  RH  063%=      5-min Rain = 0
KSB1 090338Z 00004KT 13/07 A3005 RMK A01 T01340065  RH  063%=      5-min Rain = 0
KSB1 090339Z 35004KT 13/07 A3005 RMK A01 T01330065  RH  063%=      5-min Rain = 0
KSB1 090340Z 36003KT 13/07 A3005 RMK A01 T01320065  RH  064%=      5-min Rain = 0
KSB1 090341Z 00004KT 13/07 A3005 RMK A01 T01320065  RH  064%=      5-min Rain = 0
KSB1 090342Z 36003KT 13/07 A3005 RMK A01 T01320065  RH  064%=      5-min Rain = 0
KSB1 090343Z 00003KT 13/07 A3005 RMK A01 T01320065  RH  064%=      5-min Rain = 0
KSB1 090344Z 00003KT 13/07 A3005 RMK A01 T01320065  RH  064%=      5-min Rain = 0
KSB1 090345Z 02003KT 13/07 A3005 RMK A01 T01320065  RH  064%=      5-min Rain = 0
KSB1 090346Z 35004KT 13/07 A3005 RMK A01 T01320065  RH  064%=      5-min Rain = 0
KSB1 090347Z 35003KT 13/07 A3005 RMK A01 T01330065  RH  063%=      5-min Rain = 0
KSB1 090348Z 36003KT 13/07 A3005 RMK A01 T01330065  RH  064%=      5-min Rain = 0
KSB1 090349Z 01003KT 13/07 A3005 RMK A01 T01320065  RH  064%=      5-min Rain = 0
KSB1 090350Z 01002KT 13/07 A3005 RMK A01 T01330066  RH  064%=      5-min Rain = 0
KSB1 090351Z 01003KT 13/07 A3005 RMK A01 T01320066  RH  064%=      5-min Rain = 0
KSB1 090352Z 04003KT 13/07 A3004 RMK A01 T01320066  RH  064%=      5-min Rain = 0
KSB1 090353Z 05003KT 13/07 A3005 RMK A01 T01320066  RH  064%=      5-min Rain = 0
KSB1 090354Z 04003KT 13/07 A3005 RMK A01 T01320066  RH  064%=      5-min Rain = 0
KSB1 090355Z 06004KT 13/07 A3005 RMK A01 T01320067  RH  065%=      5-min Rain = 0
KSB1 090356Z 06003KT 13/07 A3005 RMK A01 T01310066  RH  065%=      5-min Rain = 0
KSB1 090357Z 05004KT 13/07 A3004 RMK A01 T01310067  RH  065%=      5-min Rain = 0
KSB1 090358Z 06004KT 13/07 A3004 RMK A01 T01310067  RH  065%=      5-min Rain = 0
KSB1 090359Z 06004KT 13/07 A3004 RMK A01 T01300067  RH  065%=      5-min Rain = 0
KSB1 090400Z 03004KT 13/07 A3004 RMK A01 T01300067  RH  065%=      5-min Rain = 0
KSB1 090401Z 05003KT 13/07 A3004 RMK A01 T01300067  RH  066%=      5-min Rain = 0
KSB1 090402Z 04003KT 13/07 A3004 RMK A01 T01300068  RH  066%=      5-min Rain = 0
KSB1 090403Z 05003KT 13/07 A3004 RMK A01 T01290067  RH  066%=      5-min Rain = 0
KSB1 090404Z 03003KT 13/07 A3004 RMK A01 T01290067  RH  066%=      5-min Rain = 0
KSB1 090405Z 34003KT 13/07 A3004 RMK A01 T01290067  RH  066%=      5-min Rain = 0
KSB1 090406Z 34002KT 13/07 A3005 RMK A01 T01290066  RH  066%=      5-min Rain = 0
KSB1 090407Z 34001KT 13/07 A3005 RMK A01 T01300067  RH  065%=      5-min Rain = 0
KSB1 090408Z 34002KT 13/07 A3005 RMK A01 T01300067  RH  065%=      5-min Rain = 0
KSB1 090409Z 33002KT 13/07 A3005 RMK A01 T01310067  RH  065%=      5-min Rain = 0
KSB1 090410Z 31002KT 13/07 A3005 RMK A01 T01310067  RH  065%=      5-min Rain = 0
KSB1 090411Z 30002KT 13/07 A3005 RMK A01 T01310067  RH  065%=      5-min Rain = 0
KSB1 090412Z 30002KT 13/07 A3005 RMK A01 T01310067  RH  065%=      5-min Rain = 0
KSB1 090413Z 30004KT 13/07 A3005 RMK A01 T01310067  RH  065%=      5-min Rain = 0
KSB1 090414Z 30003KT 13/07 A3005 RMK A01 T01320066  RH  065%=      5-min Rain = 0
KSB1 090415Z 31003KT 13/07 A3005 RMK A01 T01330067  RH  064%=      5-min Rain = 0
KSB1 090416Z 32005KT 13/07 A3005 RMK A01 T01340067  RH  064%=      5-min Rain = 0
KSB1 090417Z 33004KT 13/07 A3005 RMK A01 T01340067  RH  064%=      5-min Rain = 0
KSB1 090418Z 36002KT 14/07 A3005 RMK A01 T01350066  RH  063%=      5-min Rain = 0
KSB1 090419Z 36002KT 14/07 A3005 RMK A01 T01350067  RH  063%=      5-min Rain = 0
KSB1 090420Z 01001KT 14/07 A3005 RMK A01 T01350067  RH  064%=      5-min Rain = 0
KSB1 090421Z 07001KT 14/07 A3005 RMK A01 T01350067  RH  064%=      5-min Rain = 0
KSB1 090422Z 08002KT 13/07 A3005 RMK A01 T01340068  RH  064%=      5-min Rain = 0
KSB1 090423Z 06001KT 13/07 A3005 RMK A01 T01340068  RH  064%=      5-min Rain = 0
KSB1 090424Z 10001KT 13/07 A3004 RMK A01 T01340068  RH  064%=      5-min Rain = 0
KSB1 090425Z 12002KT 13/07 A3004 RMK A01 T01330068  RH  064%=      5-min Rain = 0
KSB1 090426Z 12002KT 13/07 A3004 RMK A01 T01320068  RH  065%=      5-min Rain = 0
KSB1 090427Z 12002KT 13/07 A3004 RMK A01 T01320068  RH  065%=      5-min Rain = 0
KSB1 090428Z 13002KT 13/07 A3004 RMK A01 T01320068  RH  065%=      5-min Rain = 0
KSB1 090429Z 11001KT 13/07 A3004 RMK A01 T01310068  RH  065%=      5-min Rain = 0
KSB1 090430Z 16001KT 13/07 A3005 RMK A01 T01310068  RH  065%=      5-min Rain = 0
KSB1 090431Z 13001KT 13/07 A3005 RMK A01 T01310068  RH  066%=      5-min Rain = 0
KSB1 090432Z 13001KT 13/07 A3005 RMK A01 T01300068  RH  066%=      5-min Rain = 0
KSB1 090433Z 11001KT 13/07 A3005 RMK A01 T01310069  RH  066%=      5-min Rain = 0
KSB1 090434Z 11001KT 13/07 A3005 RMK A01 T01300069  RH  066%=      5-min Rain = 0
KSB1 090435Z 09000KT 13/07 A3005 RMK A01 T01300068  RH  066%=      5-min Rain = 0
KSB1 090436Z 05002KT 13/07 A3005 RMK A01 T01300068  RH  066%=      5-min Rain = 0
KSB1 090437Z 07002KT 13/07 A3005 RMK A01 T01310067  RH  065%=      5-min Rain = 0
KSB1 090438Z 05002KT 13/07 A3005 RMK A01 T01320068  RH  065%=      5-min Rain = 0
KSB1 090439Z 06001KT 13/07 A3004 RMK A01 T01320068  RH  065%=      5-min Rain = 0
KSB1 090440Z 06003KT 13/07 A3004 RMK A01 T01320068  RH  065%=      5-min Rain = 0
KSB1 090441Z 05004KT 13/07 A3004 RMK A01 T01320068  RH  065%=      5-min Rain = 0
KSB1 090442Z 04003KT 13/07 A3004 RMK A01 T01320068  RH  065%=      5-min Rain = 0
KSB1 090443Z 04002KT 13/07 A3004 RMK A01 T01320068  RH  065%=      5-min Rain = 0
KSB1 090444Z 06002KT 13/07 A3004 RMK A01 T01310068  RH  066%=      5-min Rain = 0
KSB1 090445Z 07002KT 13/07 A3004 RMK A01 T01310068  RH  066%=      5-min Rain = 0
KSB1 090446Z 07002KT 13/07 A3004 RMK A01 T01320068  RH  065%=      5-min Rain = 0
KSB1 090447Z 07001KT 13/07 A3004 RMK A01 T01320068  RH  065%=      5-min Rain = 0
KSB1 090448Z 03000KT 13/07 A3004 RMK A01 T01310069  RH  066%=      5-min Rain = 0
KSB1 090449Z 28002KT 13/07 A3004 RMK A01 T01310069  RH  066%=      5-min Rain = 0
KSB1 090450Z 27002KT 13/07 A3005 RMK A01 T01300069  RH  066%=      5-min Rain = 0
KSB1 090451Z 12001KT 13/07 A3004 RMK A01 T01290069  RH  067%=      5-min Rain = 0
KSB1 090452Z 10002KT 13/07 A3004 RMK A01 T01290068  RH  066%=      5-min Rain = 0
KSB1 090453Z 11002KT 13/07 A3004 RMK A01 T01300068  RH  066%=      5-min Rain = 0
KSB1 090454Z 14002KT 13/07 A3004 RMK A01 T01300069  RH  067%=      5-min Rain = 0
KSB1 090455Z 15001KT 13/07 A3004 RMK A01 T01300069  RH  067%=      5-min Rain = 0
KSB1 090456Z 31001KT 13/07 A3004 RMK A01 T01300069  RH  066%=      5-min Rain = 0
KSB1 090457Z 09000KT 13/07 A3004 RMK A01 T01310069  RH  066%=      5-min Rain = 0
KSB1 090458Z 05001KT 13/07 A3004 RMK A01 T01320069  RH  066%=      5-min Rain = 0
KSB1 090459Z 03002KT 13/07 A3004 RMK A01 T01320069  RH  065%=      5-min Rain = 0
KSB1 090500Z 09001KT 13/07 A3004 RMK A01 T01320069  RH  066%=      5-min Rain = 0
KSB1 090501Z 08001KT 13/07 A3004 RMK A01 T01320069  RH  066%=      5-min Rain = 0
KSB1 090502Z 06001KT 13/07 A3004 RMK A01 T01320069  RH  066%=      5-min Rain = 0
KSB1 090503Z 34001KT 13/07 A3004 RMK A01 T01320070  RH  066%=      5-min Rain = 0
KSB1 090504Z 30001KT 13/07 A3004 RMK A01 T01310069  RH  066%=      5-min Rain = 0
KSB1 090505Z 28001KT 13/07 A3005 RMK A01 T01310070  RH  066%=      5-min Rain = 0
KSB1 090506Z 06001KT 13/07 A3005 RMK A01 T01310069  RH  066%=      5-min Rain = 0
KSB1 090507Z 06002KT 13/07 A3005 RMK A01 T01310069  RH  066%=      5-min Rain = 0
KSB1 090508Z 01003KT 13/07 A3005 RMK A01 T01310070  RH  066%=      5-min Rain = 0
KSB1 090509Z 01003KT 13/07 A3005 RMK A01 T01320070  RH  066%=      5-min Rain = 0
KSB1 090510Z 36003KT 13/07 A3005 RMK A01 T01320070  RH  066%=      5-min Rain = 0
KSB1 090511Z 00002KT 13/07 A3005 RMK A01 T01320071  RH  066%=      5-min Rain = 0
KSB1 090512Z 34001KT 13/07 A3005 RMK A01 T01320071  RH  067%=      5-min Rain = 0
KSB1 090513Z 33002KT 13/07 A3005 RMK A01 T01320071  RH  067%=      5-min Rain = 0
KSB1 090514Z 31003KT 13/07 A3005 RMK A01 T01320071  RH  067%=      5-min Rain = 0
KSB1 090515Z 34003KT 13/07 A3005 RMK A01 T01320071  RH  066%=      5-min Rain = 0
KSB1 090516Z 32003KT 13/07 A3005 RMK A01 T01320071  RH  067%=      5-min Rain = 0
KSB1 090517Z 34003KT 13/07 A3005 RMK A01 T01320071  RH  066%=      5-min Rain = 0
KSB1 090518Z 36003KT 13/07 A3005 RMK A01 T01320071  RH  066%=      5-min Rain = 0
KSB1 090519Z 35005KT 13/07 A3005 RMK A01 T01330072  RH  067%=      5-min Rain = 0
KSB1 090520Z 01003KT 13/07 A3005 RMK A01 T01320072  RH  067%=      5-min Rain = 0
KSB1 090521Z 35003KT 13/07 A3005 RMK A01 T01320072  RH  067%=      5-min Rain = 0
KSB1 090522Z 35005KT 13/07 A3005 RMK A01 T01320072  RH  067%=      5-min Rain = 0
KSB1 090523Z 35003KT 13/07 A3005 RMK A01 T01320072  RH  067%=      5-min Rain = 0
KSB1 090524Z 01002KT 13/07 A3005 RMK A01 T01320071  RH  067%=      5-min Rain = 0
KSB1 090525Z 33005KT 13/07 A3005 RMK A01 T01320072  RH  067%=      5-min Rain = 0
KSB1 090526Z 31004KT 13/07 A3004 RMK A01 T01320071  RH  067%=      5-min Rain = 0
KSB1 090527Z 02002KT 13/07 A3004 RMK A01 T01310071  RH  067%=      5-min Rain = 0
KSB1 090528Z 00005KT 13/07 A3004 RMK A01 T01320071  RH  067%=      5-min Rain = 0
KSB1 090529Z 34005KT 13/07 A3004 RMK A01 T01310071  RH  067%=      5-min Rain = 0
KSB1 090530Z 01004KT 13/07 A3004 RMK A01 T01310071  RH  067%=      5-min Rain = 0
KSB1 090531Z 02004KT 13/07 A3004 RMK A01 T01310071  RH  067%=      5-min Rain = 0
KSB1 090532Z 32005KT 13/07 A3005 RMK A01 T01320072  RH  067%=      5-min Rain = 0
KSB1 090533Z 33005KT 13/07 A3005 RMK A01 T01320071  RH  067%=      5-min Rain = 0
KSB1 090534Z 33005KT 13/07 A3005 RMK A01 T01320070  RH  066%=      5-min Rain = 0
KSB1 090535Z 00004KT 13/07 A3005 RMK A01 T01320071  RH  066%=      5-min Rain = 0
KSB1 090536Z 00003KT 13/07 A3005 RMK A01 T01320071  RH  066%=      5-min Rain = 0
KSB1 090537Z 01002KT 13/07 A3005 RMK A01 T01320071  RH  066%=      5-min Rain = 0
KSB1 090538Z 34003KT 13/07 A3005 RMK A01 T01320072  RH  067%=      5-min Rain = 0
KSB1 090539Z 35002KT 13/07 A3005 RMK A01 T01310071  RH  067%=      5-min Rain = 0
KSB1 090540Z 36002KT 13/07 A3005 RMK A01 T01320071  RH  067%=      5-min Rain = 0
KSB1 090541Z 35001KT 13/07 A3005 RMK A01 T01310072  RH  067%=      5-min Rain = 0
KSB1 090542Z 35001KT 13/07 A3005 RMK A01 T01310072  RH  067%=      5-min Rain = 0
KSB1 090543Z 34001KT 13/07 A3005 RMK A01 T01310072  RH  067%=      5-min Rain = 0
KSB1 090544Z 35001KT 13/07 A3005 RMK A01 T01310071  RH  067%=      5-min Rain = 0
KSB1 090545Z 01001KT 13/07 A3005 RMK A01 T01310071  RH  067%=      5-min Rain = 0
KSB1 090546Z 36002KT 13/07 A3005 RMK A01 T01310071  RH  067%=      5-min Rain = 0
KSB1 090547Z 36001KT 13/07 A3005 RMK A01 T01310071  RH  067%=      5-min Rain = 0
KSB1 090548Z 36002KT 13/07 A3005 RMK A01 T01310072  RH  067%=      5-min Rain = 0
KSB1 090549Z 34002KT 13/07 A3005 RMK A01 T01310072  RH  068%=      5-min Rain = 0
KSB1 090550Z 33001KT 13/07 A3005 RMK A01 T01300072  RH  068%=      5-min Rain = 0
KSB1 090551Z 32002KT 13/07 A3005 RMK A01 T01300072  RH  068%=      5-min Rain = 0
KSB1 090552Z 31004KT 13/07 A3005 RMK A01 T01300072  RH  068%=      5-min Rain = 0
KSB1 090553Z 33004KT 13/07 A3005 RMK A01 T01300070  RH  067%=      5-min Rain = 0
KSB1 090554Z 33004KT 13/07 A3005 RMK A01 T01300070  RH  067%=      5-min Rain = 0
KSB1 090555Z 35004KT 13/07 A3005 RMK A01 T01310070  RH  066%=      5-min Rain = 0
KSB1 090556Z 32004KT 13/07 A3005 RMK A01 T01310070  RH  066%=      5-min Rain = 0
KSB1 090557Z 01005KT 13/07 A3004 RMK A01 T01310069  RH  066%=      5-min Rain = 0
KSB1 090558Z 32005KT 13/07 A3004 RMK A01 T01310069  RH  066%=      5-min Rain = 0
KSB1 090559Z 31003KT 13/07 A3004 RMK A01 T01310068  RH  066%=      5-min Rain = 0

Page generated in 0.0785 seconds.